Observation data for Menard on 07/11/2018      Previous  Date       Current Mesonet Observations  Soil Data  Daily Summary Page  Observations in Plain Language
KMD1 110501Z 20003KT 26/17 A3011 RMK A01 T02580170  RH  058%=      5-min Rain = 0
KMD1 110502Z 19004KT 26/17 A3011 RMK A01 T02570169  RH  058%=      5-min Rain = 0
KMD1 110503Z 20003KT 26/17 A3011 RMK A01 T02580169  RH  058%=      5-min Rain = 0
KMD1 110504Z 20003KT 26/17 A3011 RMK A01 T02580170  RH  058%=      5-min Rain = 0
KMD1 110505Z 20003KT 26/17 A3011 RMK A01 T02580170  RH  058%=      5-min Rain = 0
KMD1 110506Z 20002KT 26/17 A3011 RMK A01 T02580170  RH  058%=      5-min Rain = 0
KMD1 110507Z 20003KT 26/17 A3011 RMK A01 T02570170  RH  059%=      5-min Rain = 0
KMD1 110508Z 20003KT 26/17 A3011 RMK A01 T02570170  RH  059%=      5-min Rain = 0
KMD1 110509Z 20003KT 26/17 A3011 RMK A01 T02560170  RH  059%=      5-min Rain = 0
KMD1 110510Z 21003KT 26/17 A3011 RMK A01 T02560170  RH  059%=      5-min Rain = 0
KMD1 110511Z 19003KT 26/17 A3011 RMK A01 T02550170  RH  059%=      5-min Rain = 0
KMD1 110512Z 21003KT 26/17 A3011 RMK A01 T02560170  RH  059%=      5-min Rain = 0
KMD1 110513Z 20002KT 26/17 A3011 RMK A01 T02550170  RH  059%=      5-min Rain = 0
KMD1 110514Z 20004KT 26/17 A3011 RMK A01 T02550170  RH  059%=      5-min Rain = 0
KMD1 110515Z 21003KT 26/17 A3011 RMK A01 T02550170  RH  059%=      5-min Rain = 0
KMD1 110516Z 22002KT 26/17 A3011 RMK A01 T02550170  RH  059%=      5-min Rain = 0
KMD1 110517Z 21003KT 26/17 A3011 RMK A01 T02550171  RH  059%=      5-min Rain = 0
KMD1 110518Z 22003KT 26/17 A3011 RMK A01 T02550170  RH  059%=      5-min Rain = 0
KMD1 110519Z 22003KT 26/17 A3011 RMK A01 T02550170  RH  059%=      5-min Rain = 0
KMD1 110520Z 20003KT 26/17 A3011 RMK A01 T02550171  RH  060%=      5-min Rain = 0
KMD1 110521Z 21002KT 26/17 A3011 RMK A01 T02550171  RH  060%=      5-min Rain = 0
KMD1 110522Z 20003KT 26/17 A3011 RMK A01 T02550171  RH  060%=      5-min Rain = 0
KMD1 110523Z 21002KT 25/17 A3011 RMK A01 T02540171  RH  060%=      5-min Rain = 0
KMD1 110524Z 20003KT 25/17 A3011 RMK A01 T02540171  RH  060%=      5-min Rain = 0
KMD1 110525Z 20003KT 25/17 A3011 RMK A01 T02540171  RH  060%=      5-min Rain = 0
KMD1 110526Z 20003KT 25/17 A3011 RMK A01 T02540171  RH  060%=      5-min Rain = 0
KMD1 110527Z 20003KT 25/17 A3011 RMK A01 T02530171  RH  060%=      5-min Rain = 0
KMD1 110528Z 21003KT 25/17 A3011 RMK A01 T02530171  RH  061%=      5-min Rain = 0
KMD1 110529Z 20003KT 25/17 A3011 RMK A01 T02530171  RH  061%=      5-min Rain = 0
KMD1 110530Z 20004KT 25/17 A3011 RMK A01 T02530171  RH  061%=      5-min Rain = 0
KMD1 110531Z 19003KT 25/17 A3011 RMK A01 T02530171  RH  060%=      5-min Rain = 0
KMD1 110532Z 21004KT 25/17 A3011 RMK A01 T02530171  RH  060%=      5-min Rain = 0
KMD1 110533Z 20003KT 25/17 A3011 RMK A01 T02530171  RH  060%=      5-min Rain = 0
KMD1 110534Z 21003KT 25/17 A3011 RMK A01 T02530171  RH  061%=      5-min Rain = 0
KMD1 110535Z 20003KT 25/17 A3011 RMK A01 T02530172  RH  061%=      5-min Rain = 0
KMD1 110536Z 21003KT 25/17 A3011 RMK A01 T02530172  RH  061%=      5-min Rain = 0
KMD1 110537Z 21003KT 25/17 A3011 RMK A01 T02530172  RH  061%=      5-min Rain = 0
KMD1 110538Z 22003KT 25/17 A3011 RMK A01 T02520172  RH  061%=      5-min Rain = 0
KMD1 110539Z 22002KT 25/17 A3011 RMK A01 T02520172  RH  061%=      5-min Rain = 0
KMD1 110540Z 22001KT 25/17 A3011 RMK A01 T02510172  RH  061%=      5-min Rain = 0
KMD1 110541Z 21001KT 25/17 A3011 RMK A01 T02500171  RH  062%=      5-min Rain = 0
KMD1 110542Z 21001KT 25/17 A3011 RMK A01 T02500172  RH  062%=      5-min Rain = 0
KMD1 110543Z 21002KT 25/17 A3011 RMK A01 T02500172  RH  062%=      5-min Rain = 0
KMD1 110544Z 21002KT 25/17 A3011 RMK A01 T02500172  RH  062%=      5-min Rain = 0
KMD1 110545Z 20001KT 25/17 A3011 RMK A01 T02500172  RH  062%=      5-min Rain = 0
KMD1 110546Z 17000KT 25/17 A3011 RMK A01 T02500172  RH  062%=      5-min Rain = 0
KMD1 110547Z 00000KT 25/17 A3011 RMK A01 T02500172  RH  062%=      5-min Rain = 0
KMD1 110548Z 17000KT 25/17 A3011 RMK A01 T02500172  RH  062%=      5-min Rain = 0
KMD1 110549Z 15001KT 25/17 A3011 RMK A01 T02490172  RH  062%=      5-min Rain = 0
KMD1 110550Z 15000KT 25/17 A3011 RMK A01 T02490171  RH  062%=      5-min Rain = 0
KMD1 110551Z 05000KT 25/17 A3011 RMK A01 T02490171  RH  062%=      5-min Rain = 0
KMD1 110552Z 05001KT 25/17 A3011 RMK A01 T02490172  RH  062%=      5-min Rain = 0
KMD1 110553Z 12000KT 25/17 A3011 RMK A01 T02470172  RH  063%=      5-min Rain = 0
KMD1 110554Z 03001KT 25/17 A3011 RMK A01 T02460171  RH  063%=      5-min Rain = 0
KMD1 110555Z 03001KT 25/17 A3011 RMK A01 T02450171  RH  063%=      5-min Rain = 0
KMD1 110556Z 06001KT 25/17 A3011 RMK A01 T02450171  RH  064%=      5-min Rain = 0
KMD1 110557Z 04001KT 24/17 A3011 RMK A01 T02440171  RH  064%=      5-min Rain = 0
KMD1 110558Z 05001KT 24/17 A3011 RMK A01 T02440171  RH  064%=      5-min Rain = 0
KMD1 110559Z 06001KT 24/17 A3011 RMK A01 T02430171  RH  064%=      5-min Rain = 0
KMD1 110600Z 03001KT 24/17 A3011 RMK A01 T02420171  RH  065%=      5-min Rain = 0
KMD1 110601Z 05001KT 24/17 A3011 RMK A01 T02420171  RH  064%=      5-min Rain = 0
KMD1 110602Z 05001KT 24/17 A3011 RMK A01 T02420171  RH  064%=      5-min Rain = 0
KMD1 110603Z 05001KT 24/17 A3011 RMK A01 T02420172  RH  065%=      5-min Rain = 0
KMD1 110604Z 03001KT 24/17 A3011 RMK A01 T02410172  RH  065%=      5-min Rain = 0
KMD1 110605Z 04002KT 24/17 A301 RMK A01 T02410171  RH  065%=      5-min Rain = 0
KMD1 110606Z 03002KT 24/17 A301 RMK A01 T02410171  RH  065%=      5-min Rain = 0
KMD1 110607Z 04002KT 24/17 A301 RMK A01 T02410172  RH  065%=      5-min Rain = 0
KMD1 110608Z 05002KT 24/17 A301 RMK A01 T02400171  RH  065%=      5-min Rain = 0
KMD1 110609Z 04002KT 24/17 A301 RMK A01 T02400171  RH  065%=      5-min Rain = 0
KMD1 110610Z 05001KT 24/17 A301 RMK A01 T02400170  RH  065%=      5-min Rain = 0
KMD1 110611Z 04002KT 24/17 A301 RMK A01 T02410170  RH  065%=      5-min Rain = 0
KMD1 110612Z 06002KT 24/17 A301 RMK A01 T02420170  RH  064%=      5-min Rain = 0
KMD1 110613Z 05002KT 24/17 A301 RMK A01 T02430171  RH  064%=      5-min Rain = 0
KMD1 110614Z 08002KT 24/17 A301 RMK A01 T02420172  RH  065%=      5-min Rain = 0
KMD1 110615Z 08001KT 24/17 A301 RMK A01 T02410171  RH  065%=      5-min Rain = 0
KMD1 110616Z 09001KT 24/17 A301 RMK A01 T02410171  RH  065%=      5-min Rain = 0
KMD1 110617Z 10001KT 24/17 A301 RMK A01 T02410171  RH  065%=      5-min Rain = 0
KMD1 110618Z 10001KT 24/17 A301 RMK A01 T02410171  RH  065%=      5-min Rain = 0
KMD1 110619Z 09000KT 24/17 A301 RMK A01 T02410171  RH  065%=      5-min Rain = 0
KMD1 110620Z 12001KT 24/17 A301 RMK A01 T02420171  RH  065%=      5-min Rain = 0
KMD1 110621Z 11002KT 24/17 A301 RMK A01 T02420171  RH  064%=      5-min Rain = 0
KMD1 110622Z 13002KT 24/17 A301 RMK A01 T02430172  RH  064%=      5-min Rain = 0
KMD1 110623Z 12002KT 24/17 A301 RMK A01 T02430171  RH  064%=      5-min Rain = 0
KMD1 110624Z 13002KT 24/17 A301 RMK A01 T02430172  RH  064%=      5-min Rain = 0
KMD1 110625Z 12003KT 24/17 A301 RMK A01 T02440172  RH  064%=      5-min Rain = 0
KMD1 110626Z 13003KT 24/17 A301 RMK A01 T02430172  RH  064%=      5-min Rain = 0
KMD1 110627Z 14002KT 24/17 A301 RMK A01 T02440172  RH  064%=      5-min Rain = 0
KMD1 110628Z 14002KT 24/17 A301 RMK A01 T02440172  RH  064%=      5-min Rain = 0
KMD1 110629Z 13002KT 24/17 A301 RMK A01 T02440172  RH  064%=      5-min Rain = 0
KMD1 110630Z 15003KT 24/17 A301 RMK A01 T02440172  RH  064%=      5-min Rain = 0
KMD1 110631Z 14002KT 25/17 A301 RMK A01 T02450172  RH  064%=      5-min Rain = 0
KMD1 110632Z 15003KT 25/17 A301 RMK A01 T02450172  RH  064%=      5-min Rain = 0
KMD1 110633Z 15003KT 25/17 A301 RMK A01 T02460171  RH  063%=      5-min Rain = 0
KMD1 110634Z 15003KT 25/17 A301 RMK A01 T02470172  RH  063%=      5-min Rain = 0
KMD1 110635Z 13003KT 25/17 A301 RMK A01 T02470172  RH  063%=      5-min Rain = 0
KMD1 110636Z 15003KT 25/17 A301 RMK A01 T02470172  RH  063%=      5-min Rain = 0
KMD1 110637Z 15003KT 25/17 A301 RMK A01 T02470172  RH  063%=      5-min Rain = 0
KMD1 110638Z 15003KT 25/17 A301 RMK A01 T02460173  RH  064%=      5-min Rain = 0
KMD1 110639Z 15004KT 25/17 A301 RMK A01 T02460173  RH  064%=      5-min Rain = 0
KMD1 110640Z 15003KT 25/17 A301 RMK A01 T02450174  RH  064%=      5-min Rain = 0
KMD1 110641Z 15003KT 24/17 A301 RMK A01 T02440174  RH  065%=      5-min Rain = 0
KMD1 110642Z 16003KT 24/17 A301 RMK A01 T02430174  RH  065%=      5-min Rain = 0
KMD1 110643Z 16004KT 24/17 A301 RMK A01 T02420173  RH  065%=      5-min Rain = 0
KMD1 110644Z 16004KT 24/17 A301 RMK A01 T02420173  RH  065%=      5-min Rain = 0
KMD1 110645Z 16003KT 24/17 A301 RMK A01 T02420174  RH  065%=      5-min Rain = 0
KMD1 110646Z 16004KT 24/17 A301 RMK A01 T02420173  RH  065%=      5-min Rain = 0
KMD1 110647Z 17005KT 24/17 A301 RMK A01 T02420173  RH  066%=      5-min Rain = 0
KMD1 110648Z 16004KT 24/17 A301 RMK A01 T02420174  RH  066%=      5-min Rain = 0
KMD1 110649Z 15004KT 24/17 A301 RMK A01 T02420174  RH  066%=      5-min Rain = 0
KMD1 110650Z 16004KT 24/17 A301 RMK A01 T02410174  RH  066%=      5-min Rain = 0
KMD1 110651Z 16004KT 24/17 A301 RMK A01 T02400174  RH  066%=      5-min Rain = 0
KMD1 110652Z 15004KT 24/17 A301 RMK A01 T02400174  RH  066%=      5-min Rain = 0
KMD1 110653Z 14003KT 24/17 A301 RMK A01 T02400174  RH  066%=      5-min Rain = 0
KMD1 110654Z 15003KT 24/17 A301 RMK A01 T02400174  RH  066%=      5-min Rain = 0
KMD1 110655Z 14003KT 24/17 A301 RMK A01 T02390174  RH  067%=      5-min Rain = 0
KMD1 110656Z 14003KT 24/17 A301 RMK A01 T02390174  RH  067%=      5-min Rain = 0
KMD1 110657Z 14003KT 24/18 A301 RMK A01 T02380175  RH  068%=      5-min Rain = 0
KMD1 110658Z 12003KT 24/18 A301 RMK A01 T02370175  RH  068%=      5-min Rain = 0
KMD1 110659Z 13003KT 24/17 A301 RMK A01 T02360174  RH  068%=      5-min Rain = 0
KMD1 110700Z 12003KT 24/17 A301 RMK A01 T02360174  RH  068%=      5-min Rain = 0
KMD1 110701Z 12003KT 24/18 A301 RMK A01 T02360175  RH  068%=      5-min Rain = 0
KMD1 110702Z 13003KT 24/18 A301 RMK A01 T02350175  RH  069%=      5-min Rain = 0
KMD1 110703Z 13003KT 24/17 A301 RMK A01 T02350174  RH  069%=      5-min Rain = 0
KMD1 110704Z 13004KT 23/17 A301 RMK A01 T02340174  RH  069%=      5-min Rain = 0
KMD1 110705Z 12004KT 23/17 A301 RMK A01 T02330174  RH  069%=      5-min Rain = 0
KMD1 110706Z 12004KT 23/17 A301 RMK A01 T02320173  RH  069%=      5-min Rain = 0
KMD1 110707Z 12004KT 23/17 A301 RMK A01 T02330174  RH  069%=      5-min Rain = 0
KMD1 110708Z 12003KT 23/17 A301 RMK A01 T02320174  RH  070%=      5-min Rain = 0
KMD1 110709Z 12004KT 23/17 A301 RMK A01 T02300173  RH  070%=      5-min Rain = 0
KMD1 110710Z 12004KT 23/17 A301 RMK A01 T02300173  RH  070%=      5-min Rain = 0
KMD1 110711Z 12003KT 23/17 A301 RMK A01 T02290173  RH  071%=      5-min Rain = 0
KMD1 110712Z 12003KT 23/17 A301 RMK A01 T02280173  RH  071%=      5-min Rain = 0
KMD1 110713Z 12003KT 23/17 A301 RMK A01 T02280173  RH  071%=      5-min Rain = 0
KMD1 110714Z 12003KT 23/17 A301 RMK A01 T02280172  RH  071%=      5-min Rain = 0
KMD1 110715Z 12003KT 23/17 A301 RMK A01 T02280173  RH  071%=      5-min Rain = 0
KMD1 110716Z 12003KT 23/17 A301 RMK A01 T02280173  RH  071%=      5-min Rain = 0
KMD1 110717Z 12003KT 23/17 A301 RMK A01 T02280173  RH  071%=      5-min Rain = 0
KMD1 110718Z 13004KT 23/17 A301 RMK A01 T02290173  RH  071%=      5-min Rain = 0
KMD1 110719Z 13003KT 23/17 A301 RMK A01 T02290173  RH  071%=      5-min Rain = 0
KMD1 110720Z 13004KT 23/17 A301 RMK A01 T02300173  RH  070%=      5-min Rain = 0
KMD1 110721Z 13004KT 23/17 A301 RMK A01 T02300173  RH  070%=      5-min Rain = 0
KMD1 110722Z 13003KT 23/17 A301 RMK A01 T02320174  RH  070%=      5-min Rain = 0
KMD1 110723Z 13003KT 23/17 A301 RMK A01 T02320173  RH  070%=      5-min Rain = 0
KMD1 110724Z 13004KT 23/17 A301 RMK A01 T02320174  RH  070%=      5-min Rain = 0
KMD1 110725Z 14004KT 23/17 A301 RMK A01 T02320174  RH  070%=      5-min Rain = 0
KMD1 110726Z 13003KT 23/18 A301 RMK A01 T02320175  RH  070%=      5-min Rain = 0
KMD1 110727Z 14003KT 23/18 A301 RMK A01 T02320175  RH  070%=      5-min Rain = 0
KMD1 110728Z 13003KT 23/18 A301 RMK A01 T02320175  RH  070%=      5-min Rain = 0
KMD1 110729Z 13002KT 23/18 A301 RMK A01 T02320175  RH  070%=      5-min Rain = 0
KMD1 110730Z 14003KT 23/18 A301 RMK A01 T02320175  RH  070%=      5-min Rain = 0
KMD1 110731Z 15003KT 23/18 A301 RMK A01 T02320175  RH  070%=      5-min Rain = 0
KMD1 110732Z 14003KT 23/18 A301 RMK A01 T02320175  RH  070%=      5-min Rain = 0
KMD1 110733Z 13003KT 23/18 A301 RMK A01 T02330175  RH  070%=      5-min Rain = 0
KMD1 110734Z 14002KT 23/18 A301 RMK A01 T02330175  RH  070%=      5-min Rain = 0
KMD1 110735Z 13002KT 23/18 A301 RMK A01 T02330175  RH  070%=      5-min Rain = 0
KMD1 110736Z 13002KT 23/18 A301 RMK A01 T02330175  RH  070%=      5-min Rain = 0
KMD1 110737Z 13002KT 23/18 A301 RMK A01 T02330175  RH  070%=      5-min Rain = 0
KMD1 110738Z 14002KT 23/18 A301 RMK A01 T02330175  RH  070%=      5-min Rain = 0
KMD1 110739Z 14003KT 23/18 A301 RMK A01 T02330175  RH  070%=      5-min Rain = 0
KMD1 110740Z 14002KT 23/18 A301 RMK A01 T02330175  RH  070%=      5-min Rain = 0
KMD1 110741Z 14002KT 23/18 A301 RMK A01 T02330175  RH  070%=      5-min Rain = 0
KMD1 110742Z 11001KT 23/18 A301 RMK A01 T02330175  RH  070%=      5-min Rain = 0
KMD1 110743Z 13001KT 23/18 A301 RMK A01 T02330175  RH  070%=      5-min Rain = 0
KMD1 110744Z 14001KT 23/18 A301 RMK A01 T02330175  RH  070%=      5-min Rain = 0
KMD1 110745Z 12001KT 23/18 A301 RMK A01 T02320175  RH  070%=      5-min Rain = 0
KMD1 110746Z 13001KT 23/18 A301 RMK A01 T02320175  RH  070%=      5-min Rain = 0
KMD1 110747Z 12002KT 23/18 A301 RMK A01 T02320176  RH  071%=      5-min Rain = 0
KMD1 110748Z 12001KT 23/18 A301 RMK A01 T02310176  RH  071%=      5-min Rain = 0
KMD1 110749Z 13001KT 23/18 A3011 RMK A01 T02300175  RH  071%=      5-min Rain = 0
KMD1 110750Z 11001KT 23/18 A3011 RMK A01 T02300175  RH  072%=      5-min Rain = 0
KMD1 110751Z 11000KT 23/18 A3011 RMK A01 T02290176  RH  072%=      5-min Rain = 0
KMD1 110752Z 09001KT 23/18 A3011 RMK A01 T02300177  RH  072%=      5-min Rain = 0
KMD1 110753Z 06001KT 23/18 A3011 RMK A01 T02300176  RH  071%=      5-min Rain = 0
KMD1 110754Z 04000KT 23/18 A3011 RMK A01 T02310175  RH  071%=      5-min Rain = 0
KMD1 110755Z 07001KT 23/18 A3011 RMK A01 T02300175  RH  071%=      5-min Rain = 0
KMD1 110756Z 10000KT 23/18 A3011 RMK A01 T02290178  RH  073%=      5-min Rain = 0
KMD1 110757Z 01000KT 23/18 A3011 RMK A01 T02280175  RH  072%=      5-min Rain = 0
KMD1 110758Z 01000KT 23/17 A301 RMK A01 T02280174  RH  072%=      5-min Rain = 0
KMD1 110759Z 01000KT 23/18 A301 RMK A01 T02280175  RH  072%=      5-min Rain = 0
KMD1 110800Z 02000KT 23/18 A301 RMK A01 T02280175  RH  072%=      5-min Rain = 0
KMD1 110801Z 01000KT 23/18 A3011 RMK A01 T02280175  RH  072%=      5-min Rain = 0
KMD1 110802Z 04000KT 23/18 A3011 RMK A01 T02280175  RH  072%=      5-min Rain = 0
KMD1 110803Z 06001KT 23/17 A3011 RMK A01 T02280174  RH  072%=      5-min Rain = 0
KMD1 110804Z 05001KT 23/17 A3011 RMK A01 T02280174  RH  071%=      5-min Rain = 0
KMD1 110805Z 07000KT 23/17 A3011 RMK A01 T02270174  RH  072%=      5-min Rain = 0
KMD1 110806Z 09000KT 23/17 A3011 RMK A01 T02260174  RH  072%=      5-min Rain = 0
KMD1 110807Z 04001KT 22/18 A3011 RMK A01 T02240175  RH  073%=      5-min Rain = 0
KMD1 110808Z 04000KT 22/18 A3011 RMK A01 T02240175  RH  074%=      5-min Rain = 0
KMD1 110809Z 00000KT 22/18 A3011 RMK A01 T02230175  RH  074%=      5-min Rain = 0
KMD1 110810Z 06000KT 22/17 A3011 RMK A01 T02230174  RH  074%=      5-min Rain = 0
KMD1 110811Z 05000KT 22/17 A3011 RMK A01 T02220173  RH  074%=      5-min Rain = 0
KMD1 110812Z 08000KT 22/17 A3011 RMK A01 T02210171  RH  073%=      5-min Rain = 0
KMD1 110813Z 07000KT 22/17 A3011 RMK A01 T02200171  RH  073%=      5-min Rain = 0
KMD1 110814Z 00000KT 22/17 A3011 RMK A01 T02200170  RH  074%=      5-min Rain = 0
KMD1 110815Z 00000KT 22/17 A3011 RMK A01 T02200170  RH  074%=      5-min Rain = 0
KMD1 110816Z 14000KT 22/17 A3011 RMK A01 T02200171  RH  074%=      5-min Rain = 0
KMD1 110817Z 16000KT 22/17 A3011 RMK A01 T02200170  RH  074%=      5-min Rain = 0
KMD1 110818Z 00000KT 22/17 A3011 RMK A01 T02190171  RH  074%=      5-min Rain = 0
KMD1 110819Z 00000KT 22/17 A3011 RMK A01 T02190172  RH  075%=      5-min Rain = 0
KMD1 110820Z 00000KT 22/17 A3011 RMK A01 T02190174  RH  076%=      5-min Rain = 0
KMD1 110821Z 00000KT 22/17 A3011 RMK A01 T02190173  RH  075%=      5-min Rain = 0
KMD1 110822Z 00000KT 22/17 A3011 RMK A01 T02190174  RH  076%=      5-min Rain = 0
KMD1 110823Z 35000KT 22/17 A3011 RMK A01 T02190174  RH  076%=      5-min Rain = 0
KMD1 110824Z 35000KT 22/17 A3011 RMK A01 T02190174  RH  076%=      5-min Rain = 0
KMD1 110825Z 34001KT 22/18 A3011 RMK A01 T02190175  RH  076%=      5-min Rain = 0
KMD1 110826Z 35001KT 22/17 A3011 RMK A01 T02200172  RH  074%=      5-min Rain = 0
KMD1 110827Z 00000KT 22/18 A3011 RMK A01 T02200175  RH  076%=      5-min Rain = 0
KMD1 110828Z 36001KT 22/17 A3011 RMK A01 T02200174  RH  075%=      5-min Rain = 0
KMD1 110829Z 36002KT 22/17 A3011 RMK A01 T02200173  RH  075%=      5-min Rain = 0
KMD1 110830Z 01002KT 22/18 A3011 RMK A01 T02200175  RH  076%=      5-min Rain = 0
KMD1 110831Z 03002KT 22/18 A3011 RMK A01 T02190175  RH  076%=      5-min Rain = 0
KMD1 110832Z 02002KT 22/17 A3011 RMK A01 T02170173  RH  076%=      5-min Rain = 0
KMD1 110833Z 02001KT 22/17 A3011 RMK A01 T02160171  RH  076%=      5-min Rain = 0
KMD1 110834Z 02001KT 22/17 A3011 RMK A01 T02150172  RH  076%=      5-min Rain = 0
KMD1 110835Z 04002KT 22/17 A3011 RMK A01 T02150171  RH  076%=      5-min Rain = 0
KMD1 110836Z 05002KT 21/17 A3011 RMK A01 T02140172  RH  077%=      5-min Rain = 0
KMD1 110837Z 05002KT 21/17 A3011 RMK A01 T02140172  RH  077%=      5-min Rain = 0
KMD1 110838Z 06002KT 21/17 A3011 RMK A01 T02130170  RH  076%=      5-min Rain = 0
KMD1 110839Z 05002KT 21/17 A3011 RMK A01 T02130169  RH  076%=      5-min Rain = 0
KMD1 110840Z 06002KT 21/17 A3011 RMK A01 T02120169  RH  076%=      5-min Rain = 0
KMD1 110841Z 07002KT 21/17 A3011 RMK A01 T02120168  RH  076%=      5-min Rain = 0
KMD1 110842Z 07002KT 21/17 A3011 RMK A01 T02110168  RH  076%=      5-min Rain = 0
KMD1 110843Z 07001KT 21/17 A3011 RMK A01 T02110169  RH  077%=      5-min Rain = 0
KMD1 110844Z 07001KT 21/17 A3011 RMK A01 T02110170  RH  077%=      5-min Rain = 0
KMD1 110845Z 07001KT 21/17 A3011 RMK A01 T02110170  RH  077%=      5-min Rain = 0
KMD1 110846Z 08001KT 21/17 A3011 RMK A01 T02110172  RH  078%=      5-min Rain = 0
KMD1 110847Z 09000KT 21/17 A3011 RMK A01 T02110173  RH  079%=      5-min Rain = 0
KMD1 110848Z 09000KT 21/18 A3011 RMK A01 T02110175  RH  080%=      5-min Rain = 0
KMD1 110849Z 09001KT 21/18 A3011 RMK A01 T02120176  RH  080%=      5-min Rain = 0
KMD1 110850Z 10000KT 21/18 A3011 RMK A01 T02130177  RH  080%=      5-min Rain = 0
KMD1 110851Z 09001KT 21/18 A3011 RMK A01 T02140178  RH  080%=      5-min Rain = 0
KMD1 110852Z 09000KT 22/18 A301 RMK A01 T02150178  RH  079%=      5-min Rain = 0
KMD1 110853Z 07000KT 22/18 A301 RMK A01 T02160178  RH  079%=      5-min Rain = 0
KMD1 110854Z 05001KT 22/18 A301 RMK A01 T02160178  RH  079%=      5-min Rain = 0
KMD1 110855Z 06000KT 22/18 A301 RMK A01 T02160179  RH  079%=      5-min Rain = 0
KMD1 110856Z 06000KT 22/18 A301 RMK A01 T02170179  RH  079%=      5-min Rain = 0
KMD1 110857Z 03000KT 22/18 A301 RMK A01 T02180179  RH  079%=      5-min Rain = 0
KMD1 110858Z 02001KT 22/18 A301 RMK A01 T02180180  RH  079%=      5-min Rain = 0
KMD1 110859Z 02001KT 22/18 A301 RMK A01 T02180177  RH  078%=      5-min Rain = 0
KMD1 110900Z 02001KT 22/18 A301 RMK A01 T02170175  RH  077%=      5-min Rain = 0
KMD1 110901Z 01001KT 22/17 A301 RMK A01 T02160173  RH  076%=      5-min Rain = 0
KMD1 110902Z 01001KT 21/17 A301 RMK A01 T02140171  RH  077%=      5-min Rain = 0
KMD1 110903Z 01001KT 21/17 A301 RMK A01 T02120170  RH  077%=      5-min Rain = 0
KMD1 110904Z 01001KT 21/17 A301 RMK A01 T02100170  RH  078%=      5-min Rain = 0
KMD1 110905Z 01002KT 21/17 A301 RMK A01 T02090171  RH  079%=      5-min Rain = 0
KMD1 110906Z 01002KT 21/17 A301 RMK A01 T02090171  RH  079%=      5-min Rain = 0
KMD1 110907Z 00002KT 21/17 A301 RMK A01 T02080171  RH  079%=      5-min Rain = 0
KMD1 110908Z 00002KT 21/17 A301 RMK A01 T02080171  RH  080%=      5-min Rain = 0
KMD1 110909Z 00002KT 21/17 A3011 RMK A01 T02070171  RH  080%=      5-min Rain = 0
KMD1 110910Z 00003KT 21/17 A3011 RMK A01 T02060172  RH  081%=      5-min Rain = 0
KMD1 110911Z 00003KT 21/17 A3011 RMK A01 T02050173  RH  082%=      5-min Rain = 0
KMD1 110912Z 00003KT 21/18 A3011 RMK A01 T02050175  RH  083%=      5-min Rain = 0
KMD1 110913Z 01003KT 21/17 A3011 RMK A01 T02050174  RH  082%=      5-min Rain = 0
KMD1 110914Z 02003KT 21/17 A3011 RMK A01 T02050172  RH  081%=      5-min Rain = 0
KMD1 110915Z 02003KT 21/17 A3011 RMK A01 T02050171  RH  081%=      5-min Rain = 0
KMD1 110916Z 02003KT 20/17 A3011 RMK A01 T02040168  RH  080%=      5-min Rain = 0
KMD1 110917Z 01004KT 20/17 A3011 RMK A01 T02030166  RH  079%=      5-min Rain = 0
KMD1 110918Z 01004KT 20/17 A3011 RMK A01 T02020166  RH  080%=      5-min Rain = 0
KMD1 110919Z 01004KT 20/17 A3011 RMK A01 T02010167  RH  080%=      5-min Rain = 0
KMD1 110920Z 01003KT 20/17 A3011 RMK A01 T02010167  RH  081%=      5-min Rain = 0
KMD1 110921Z 01004KT 20/17 A3011 RMK A01 T02000167  RH  081%=      5-min Rain = 0
KMD1 110922Z 01004KT 20/17 A3011 RMK A01 T02000168  RH  082%=      5-min Rain = 0
KMD1 110923Z 01004KT 20/17 A3011 RMK A01 T02000169  RH  082%=      5-min Rain = 0
KMD1 110924Z 01003KT 20/17 A3011 RMK A01 T02000170  RH  083%=      5-min Rain = 0
KMD1 110925Z 01003KT 20/17 A3011 RMK A01 T02010172  RH  083%=      5-min Rain = 0
KMD1 110926Z 01003KT 20/17 A301 RMK A01 T02020173  RH  084%=      5-min Rain = 0
KMD1 110927Z 00003KT 20/18 A301 RMK A01 T02040177  RH  085%=      5-min Rain = 0
KMD1 110928Z 01003KT 21/18 A301 RMK A01 T02060180  RH  085%=      5-min Rain = 0
KMD1 110929Z 01003KT 21/18 A301 RMK A01 T02090182  RH  085%=      5-min Rain = 0
KMD1 110930Z 01003KT 21/18 A301 RMK A01 T02110182  RH  084%=      5-min Rain = 0
KMD1 110931Z 02002KT 21/18 A301 RMK A01 T02110181  RH  083%=      5-min Rain = 0
KMD1 110932Z 01002KT 21/18 A301 RMK A01 T02120181  RH  082%=      5-min Rain = 0
KMD1 110933Z 02002KT 21/18 A301 RMK A01 T02120179  RH  081%=      5-min Rain = 0
KMD1 110934Z 02002KT 21/18 A301 RMK A01 T02120178  RH  081%=      5-min Rain = 0
KMD1 110935Z 02002KT 21/18 A301 RMK A01 T02130177  RH  080%=      5-min Rain = 0
KMD1 110936Z 01003KT 21/18 A301 RMK A01 T02120176  RH  080%=      5-min Rain = 0
KMD1 110937Z 02003KT 21/17 A301 RMK A01 T02110174  RH  080%=      5-min Rain = 0
KMD1 110938Z 02003KT 21/17 A301 RMK A01 T02090173  RH  080%=      5-min Rain = 0
KMD1 110939Z 02002KT 21/17 A3011 RMK A01 T02080171  RH  079%=      5-min Rain = 0
KMD1 110940Z 01003KT 21/17 A301 RMK A01 T02070170  RH  080%=      5-min Rain = 0
KMD1 110941Z 01003KT 21/17 A301 RMK A01 T02050170  RH  080%=      5-min Rain = 0
KMD1 110942Z 00002KT 20/17 A3011 RMK A01 T02040170  RH  081%=      5-min Rain = 0
KMD1 110943Z 01002KT 20/17 A3011 RMK A01 T02040170  RH  081%=      5-min Rain = 0
KMD1 110944Z 01002KT 20/17 A301 RMK A01 T02030169  RH  081%=      5-min Rain = 0
KMD1 110945Z 01002KT 20/17 A301 RMK A01 T02020169  RH  081%=      5-min Rain = 0
KMD1 110946Z 02002KT 20/17 A3011 RMK A01 T02020169  RH  081%=      5-min Rain = 0
KMD1 110947Z 01002KT 20/17 A3011 RMK A01 T02020169  RH  082%=      5-min Rain = 0
KMD1 110948Z 02002KT 20/17 A3011 RMK A01 T02010169  RH  082%=      5-min Rain = 0
KMD1 110949Z 35002KT 20/17 A3011 RMK A01 T02010169  RH  082%=      5-min Rain = 0
KMD1 110950Z 34001KT 20/17 A3011 RMK A01 T02000169  RH  082%=      5-min Rain = 0
KMD1 110951Z 35000KT 20/17 A3011 RMK A01 T02000170  RH  083%=      5-min Rain = 0
KMD1 110952Z 02001KT 20/17 A3011 RMK A01 T02000173  RH  084%=      5-min Rain = 0
KMD1 110953Z 04001KT 20/18 A3011 RMK A01 T02020175  RH  085%=      5-min Rain = 0
KMD1 110954Z 05001KT 20/17 A3011 RMK A01 T02030174  RH  083%=      5-min Rain = 0
KMD1 110955Z 03001KT 20/17 A3011 RMK A01 T02030169  RH  081%=      5-min Rain = 0
KMD1 110956Z 03001KT 20/17 A3011 RMK A01 T02020167  RH  080%=      5-min Rain = 0
KMD1 110957Z 02001KT 20/17 A301 RMK A01 T02010169  RH  082%=      5-min Rain = 0
KMD1 110958Z 04001KT 20/17 A301 RMK A01 T02000167  RH  081%=      5-min Rain = 0
KMD1 110959Z 02001KT 20/17 A301 RMK A01 T01990168  RH  082%=      5-min Rain = 0
KMD1 111000Z 01001KT 20/17 A301 RMK A01 T01990168  RH  082%=      5-min Rain = 0
KMD1 111001Z 35001KT 20/17 A301 RMK A01 T01990166  RH  081%=      5-min Rain = 0
KMD1 111002Z 35000KT 20/17 A301 RMK A01 T01980165  RH  082%=      5-min Rain = 0
KMD1 111003Z 00000KT 20/16 A301 RMK A01 T01970164  RH  082%=      5-min Rain = 0
KMD1 111004Z 33001KT 20/17 A301 RMK A01 T01960166  RH  083%=      5-min Rain = 0
KMD1 111005Z 32001KT 20/17 A301 RMK A01 T01960168  RH  084%=      5-min Rain = 0
KMD1 111006Z 33000KT 20/17 A301 RMK A01 T01960169  RH  084%=      5-min Rain = 0
KMD1 111007Z 31001KT 20/17 A301 RMK A01 T01960169  RH  084%=      5-min Rain = 0
KMD1 111008Z 28001KT 20/17 A301 RMK A01 T01960168  RH  084%=      5-min Rain = 0
KMD1 111009Z 35000KT 20/17 A301 RMK A01 T01960168  RH  084%=      5-min Rain = 0
KMD1 111010Z 35000KT 20/17 A301 RMK A01 T01960169  RH  084%=      5-min Rain = 0
KMD1 111011Z 27000KT 20/17 A301 RMK A01 T01970169  RH  084%=      5-min Rain = 0
KMD1 111012Z 28001KT 20/17 A301 RMK A01 T01970167  RH  083%=      5-min Rain = 0
KMD1 111013Z 31001KT 20/17 A301 RMK A01 T01960171  RH  085%=      5-min Rain = 0
KMD1 111014Z 31000KT 20/17 A301 RMK A01 T01960171  RH  086%=      5-min Rain = 0
KMD1 111015Z 25000KT 20/17 A301 RMK A01 T01960169  RH  084%=      5-min Rain = 0
KMD1 111016Z 25001KT 20/17 A301 RMK A01 T01960172  RH  086%=      5-min Rain = 0
KMD1 111017Z 26001KT 20/17 A301 RMK A01 T01960173  RH  087%=      5-min Rain = 0
KMD1 111018Z 24001KT 20/17 A301 RMK A01 T01960174  RH  087%=      5-min Rain = 0
KMD1 111019Z 24001KT 20/17 A301 RMK A01 T01960174  RH  087%=      5-min Rain = 0
KMD1 111020Z 23000KT 20/18 A301 RMK A01 T01970175  RH  087%=      5-min Rain = 0
KMD1 111021Z 23001KT 20/17 A301 RMK A01 T01960174  RH  087%=      5-min Rain = 0
KMD1 111022Z 21000KT 20/17 A3011 RMK A01 T01960174  RH  087%=      5-min Rain = 0
KMD1 111023Z 00000KT 20/18 A3011 RMK A01 T01960175  RH  088%=      5-min Rain = 0
KMD1 111024Z 00000KT 20/18 A3011 RMK A01 T01960175  RH  088%=      5-min Rain = 0
KMD1 111025Z 00000KT 20/18 A3011 RMK A01 T01960175  RH  088%=      5-min Rain = 0
KMD1 111026Z 00000KT 20/18 A3011 RMK A01 T01960176  RH  088%=      5-min Rain = 0
KMD1 111027Z 00000KT 20/18 A3011 RMK A01 T01960176  RH  088%=      5-min Rain = 0
KMD1 111028Z 00000KT 20/18 A3011 RMK A01 T01960175  RH  088%=      5-min Rain = 0
KMD1 111029Z 00000KT 20/17 A3011 RMK A01 T01960174  RH  087%=      5-min Rain = 0
KMD1 111030Z 00000KT 20/17 A3011 RMK A01 T01950172  RH  087%=      5-min Rain = 0
KMD1 111031Z 00000KT 19/17 A3011 RMK A01 T01940171  RH  087%=      5-min Rain = 0
KMD1 111032Z 00000KT 19/17 A3011 RMK A01 T01940172  RH  087%=      5-min Rain = 0
KMD1 111033Z 00000KT 19/17 A3011 RMK A01 T01940171  RH  087%=      5-min Rain = 0
KMD1 111034Z 00000KT 19/17 A3011 RMK A01 T01940171  RH  087%=      5-min Rain = 0
KMD1 111035Z 00000KT 19/17 A3011 RMK A01 T01930171  RH  087%=      5-min Rain = 0
KMD1 111036Z 00000KT 19/17 A3011 RMK A01 T01940171  RH  087%=      5-min Rain = 0
KMD1 111037Z 00000KT 19/17 A3011 RMK A01 T01930172  RH  087%=      5-min Rain = 0
KMD1 111038Z 00000KT 19/17 A3011 RMK A01 T01930171  RH  087%=      5-min Rain = 0
KMD1 111039Z 32000KT 19/17 A3011 RMK A01 T01930173  RH  088%=      5-min Rain = 0
KMD1 111040Z 33001KT 19/17 A3011 RMK A01 T01940174  RH  088%=      5-min Rain = 0
KMD1 111041Z 31001KT 19/17 A3011 RMK A01 T01940171  RH  086%=      5-min Rain = 0
KMD1 111042Z 31001KT 19/17 A3011 RMK A01 T01940170  RH  086%=      5-min Rain = 0
KMD1 111043Z 31000KT 19/17 A3011 RMK A01 T01930169  RH  086%=      5-min Rain = 0
KMD1 111044Z 29001KT 19/17 A3011 RMK A01 T01930170  RH  087%=      5-min Rain = 0
KMD1 111045Z 30002KT 19/17 A3011 RMK A01 T01930172  RH  087%=      5-min Rain = 0
KMD1 111046Z 31002KT 19/17 A3011 RMK A01 T01930171  RH  087%=      5-min Rain = 0
KMD1 111047Z 31002KT 19/17 A3011 RMK A01 T01930172  RH  087%=      5-min Rain = 0
KMD1 111048Z 29002KT 19/17 A3011 RMK A01 T01940173  RH  088%=      5-min Rain = 0
KMD1 111049Z 26002KT 19/17 A3011 RMK A01 T01940172  RH  087%=      5-min Rain = 0
KMD1 111050Z 24002KT 20/17 A3011 RMK A01 T01950173  RH  087%=      5-min Rain = 0
KMD1 111051Z 25002KT 20/17 A3011 RMK A01 T01950174  RH  088%=      5-min Rain = 0
KMD1 111052Z 26002KT 20/18 A3011 RMK A01 T01950175  RH  088%=      5-min Rain = 0
KMD1 111053Z 25002KT 20/18 A3011 RMK A01 T01960176  RH  088%=      5-min Rain = 0
KMD1 111054Z 24002KT 20/18 A3011 RMK A01 T01970179  RH  089%=      5-min Rain = 0
KMD1 111055Z 23003KT 20/18 A3011 RMK A01 T01980184  RH  091%=      5-min Rain = 0
KMD1 111056Z 22001KT 20/19 A3011 RMK A01 T02010185  RH  090%=      5-min Rain = 0
KMD1 111057Z 19001KT 20/18 A3011 RMK A01 T02010178  RH  086%=      5-min Rain = 0
KMD1 111058Z 10000KT 20/18 A3011 RMK A01 T02000181  RH  088%=      5-min Rain = 0
KMD1 111059Z 29001KT 20/18 A3011 RMK A01 T02000183  RH  090%=      5-min Rain = 0
KMD1 111100Z 30001KT 20/19 A3011 RMK A01 T02020187  RH  091%=      5-min Rain = 0
KMD1 111101Z 00000KT 20/18 A3011 RMK A01 T02030184  RH  089%=      5-min Rain = 0
KMD1 111102Z 33000KT 20/18 A3011 RMK A01 T02010180  RH  087%=      5-min Rain = 0
KMD1 111103Z 33001KT 20/18 A3011 RMK A01 T02010181  RH  089%=      5-min Rain = 0
KMD1 111104Z 33001KT 20/18 A3011 RMK A01 T02010181  RH  088%=      5-min Rain = 0
KMD1 111105Z 33001KT 20/18 A3011 RMK A01 T01990178  RH  088%=      5-min Rain = 0
KMD1 111106Z 34001KT 20/18 A3011 RMK A01 T01980177  RH  088%=      5-min Rain = 0
KMD1 111107Z 34001KT 20/18 A3011 RMK A01 T01970178  RH  089%=      5-min Rain = 0
KMD1 111108Z 35001KT 20/18 A3011 RMK A01 T01970180  RH  090%=      5-min Rain = 0
KMD1 111109Z 00001KT 20/18 A3011 RMK A01 T01980181  RH  089%=      5-min Rain = 0
KMD1 111110Z 01001KT 20/18 A3011 RMK A01 T01980179  RH  088%=      5-min Rain = 0
KMD1 111111Z 02001KT 20/18 A3011 RMK A01 T01970178  RH  088%=      5-min Rain = 0
KMD1 111112Z 03001KT 20/18 A3011 RMK A01 T01960177  RH  089%=      5-min Rain = 0
KMD1 111113Z 03001KT 20/18 A3011 RMK A01 T01950179  RH  090%=      5-min Rain = 0
KMD1 111114Z 03001KT 20/18 A3011 RMK A01 T01950179  RH  090%=      5-min Rain = 0
KMD1 111115Z 03002KT 20/18 A3011 RMK A01 T01950179  RH  090%=      5-min Rain = 0
KMD1 111116Z 03002KT 20/18 A3011 RMK A01 T01950178  RH  090%=      5-min Rain = 0
KMD1 111117Z 03002KT 20/18 A3011 RMK A01 T01950178  RH  090%=      5-min Rain = 0
KMD1 111118Z 03002KT 20/18 A3011 RMK A01 T01950178  RH  090%=      5-min Rain = 0
KMD1 111119Z 02002KT 20/18 A3011 RMK A01 T01950178  RH  090%=      5-min Rain = 0
KMD1 111120Z 02002KT 20/18 A3011 RMK A01 T01950179  RH  091%=      5-min Rain = 0
KMD1 111121Z 03002KT 20/18 A3011 RMK A01 T01950179  RH  091%=      5-min Rain = 0
KMD1 111122Z 02001KT 20/18 A3011 RMK A01 T01950180  RH  091%=      5-min Rain = 0
KMD1 111123Z 03001KT 20/18 A3011 RMK A01 T01960181  RH  091%=      5-min Rain = 0
KMD1 111124Z 04001KT 20/18 A3011 RMK A01 T01960181  RH  091%=      5-min Rain = 0
KMD1 111125Z 04001KT 20/18 A3011 RMK A01 T01960182  RH  091%=      5-min Rain = 0
KMD1 111126Z 05001KT 20/18 A3011 RMK A01 T01970183  RH  091%=      5-min Rain = 0
KMD1 111127Z 05000KT 20/18 A3012 RMK A01 T01980184  RH  091%=      5-min Rain = 0
KMD1 111128Z 04001KT 20/19 A3012 RMK A01 T01990185  RH  092%=      5-min Rain = 0
KMD1 111129Z 04000KT 20/19 A3012 RMK A01 T02000187  RH  092%=      5-min Rain = 0
KMD1 111130Z 00000KT 20/19 A3012 RMK A01 T02010188  RH  092%=      5-min Rain = 0
KMD1 111131Z 04000KT 20/19 A3012 RMK A01 T02020188  RH  091%=      5-min Rain = 0
KMD1 111132Z 05001KT 20/19 A3012 RMK A01 T02020187  RH  091%=      5-min Rain = 0
KMD1 111133Z 06000KT 20/19 A3012 RMK A01 T02030188  RH  091%=      5-min Rain = 0
KMD1 111134Z 06000KT 20/19 A3012 RMK A01 T02030188  RH  091%=      5-min Rain = 0
KMD1 111135Z 05000KT 20/19 A3012 RMK A01 T02020188  RH  091%=      5-min Rain = 0
KMD1 111136Z 03001KT 20/19 A3012 RMK A01 T02030187  RH  090%=      5-min Rain = 0
KMD1 111137Z 03001KT 20/19 A3012 RMK A01 T02020185  RH  090%=      5-min Rain = 0
KMD1 111138Z 02001KT 20/19 A3012 RMK A01 T02020186  RH  091%=      5-min Rain = 0
KMD1 111139Z 02001KT 20/19 A3012 RMK A01 T02020186  RH  091%=      5-min Rain = 0
KMD1 111140Z 01001KT 20/19 A3012 RMK A01 T02010186  RH  091%=      5-min Rain = 0
KMD1 111141Z 00001KT 20/19 A3012 RMK A01 T02010185  RH  091%=      5-min Rain = 0
KMD1 111142Z 36001KT 20/18 A3012 RMK A01 T02000184  RH  091%=      5-min Rain = 0
KMD1 111143Z 33001KT 20/18 A3012 RMK A01 T01990180  RH  089%=      5-min Rain = 0
KMD1 111144Z 34001KT 20/18 A3012 RMK A01 T01970175  RH  087%=      5-min Rain = 0
KMD1 111145Z 00001KT 20/18 A3012 RMK A01 T01960175  RH  088%=      5-min Rain = 0
KMD1 111146Z 00002KT 19/17 A3012 RMK A01 T01940174  RH  088%=      5-min Rain = 0
KMD1 111147Z 36002KT 19/17 A3012 RMK A01 T01940173  RH  088%=      5-min Rain = 0
KMD1 111148Z 34002KT 19/17 A3012 RMK A01 T01930172  RH  088%=      5-min Rain = 0
KMD1 111149Z 35002KT 19/17 A3012 RMK A01 T01920173  RH  089%=      5-min Rain = 0
KMD1 111150Z 36002KT 19/18 A3012 RMK A01 T01920175  RH  090%=      5-min Rain = 0
KMD1 111151Z 35002KT 19/18 A3012 RMK A01 T01920176  RH  090%=      5-min Rain = 0
KMD1 111152Z 35002KT 19/18 A3012 RMK A01 T01920176  RH  091%=      5-min Rain = 0
KMD1 111153Z 35001KT 19/18 A3012 RMK A01 T01920176  RH  090%=      5-min Rain = 0
KMD1 111154Z 35001KT 19/18 A3012 RMK A01 T01920176  RH  090%=      5-min Rain = 0
KMD1 111155Z 35001KT 19/17 A3012 RMK A01 T01930174  RH  089%=      5-min Rain = 0
KMD1 111156Z 34000KT 19/18 A3012 RMK A01 T01920175  RH  090%=      5-min Rain = 0
KMD1 111157Z 00000KT 19/18 A3012 RMK A01 T01930177  RH  090%=      5-min Rain = 0
KMD1 111158Z 00000KT 19/18 A3012 RMK A01 T01930178  RH  091%=      5-min Rain = 0
KMD1 111159Z 00000KT 19/18 A3012 RMK A01 T01930179  RH  092%=      5-min Rain = 0
KMD1 111200Z 25000KT 19/18 A3012 RMK A01 T01930178  RH  091%=      5-min Rain = 0
KMD1 111201Z 24000KT 19/18 A3012 RMK A01 T01930178  RH  092%=      5-min Rain = 0
KMD1 111202Z 00000KT 19/18 A3012 RMK A01 T01930179  RH  092%=      5-min Rain = 0
KMD1 111203Z 00000KT 19/18 A3012 RMK A01 T01930179  RH  092%=      5-min Rain = 0
KMD1 111204Z 25001KT 19/18 A3012 RMK A01 T01930179  RH  092%=      5-min Rain = 0
KMD1 111205Z 26001KT 19/18 A3012 RMK A01 T01930179  RH  092%=      5-min Rain = 0
KMD1 111206Z 26001KT 19/18 A3012 RMK A01 T01920179  RH  092%=      5-min Rain = 0
KMD1 111207Z 25001KT 19/18 A3012 RMK A01 T01920178  RH  092%=      5-min Rain = 0
KMD1 111208Z 25001KT 19/18 A3012 RMK A01 T01920178  RH  092%=      5-min Rain = 0
KMD1 111209Z 25002KT 19/18 A3012 RMK A01 T01920179  RH  092%=      5-min Rain = 0
KMD1 111210Z 25002KT 19/18 A3012 RMK A01 T01920178  RH  092%=      5-min Rain = 0
KMD1 111211Z 25002KT 19/18 A3012 RMK A01 T01920178  RH  092%=      5-min Rain = 0
KMD1 111212Z 24002KT 19/18 A3012 RMK A01 T01920179  RH  092%=      5-min Rain = 0
KMD1 111213Z 24002KT 19/18 A3012 RMK A01 T01920179  RH  092%=      5-min Rain = 0
KMD1 111214Z 24002KT 19/18 A3012 RMK A01 T01920179  RH  092%=      5-min Rain = 0
KMD1 111215Z 22002KT 19/18 A3012 RMK A01 T01920179  RH  092%=      5-min Rain = 0
KMD1 111216Z 23002KT 19/18 A3012 RMK A01 T01920180  RH  092%=      5-min Rain = 0
KMD1 111217Z 24002KT 19/18 A3012 RMK A01 T01930180  RH  092%=      5-min Rain = 0
KMD1 111218Z 23002KT 19/18 A3012 RMK A01 T01930180  RH  092%=      5-min Rain = 0
KMD1 111219Z 23002KT 19/18 A3012 RMK A01 T01930180  RH  092%=      5-min Rain = 0
KMD1 111220Z 23002KT 19/18 A3012 RMK A01 T01940180  RH  092%=      5-min Rain = 0
KMD1 111221Z 23003KT 19/18 A3012 RMK A01 T01940181  RH  092%=      5-min Rain = 0
KMD1 111222Z 23003KT 19/18 A3013 RMK A01 T01940180  RH  092%=      5-min Rain = 0
KMD1 111223Z 25002KT 19/18 A3013 RMK A01 T01940180  RH  092%=      5-min Rain = 0
KMD1 111224Z 26002KT 19/18 A3013 RMK A01 T01940181  RH  092%=      5-min Rain = 0
KMD1 111225Z 27001KT 19/18 A3013 RMK A01 T01940181  RH  092%=      5-min Rain = 0
KMD1 111226Z 27001KT 20/18 A3013 RMK A01 T01950182  RH  092%=      5-min Rain = 0
KMD1 111227Z 00000KT 20/18 A3013 RMK A01 T01960183  RH  092%=      5-min Rain = 0
KMD1 111228Z 00000KT 20/18 A3013 RMK A01 T01970184  RH  092%=      5-min Rain = 0
KMD1 111229Z 00000KT 20/18 A3013 RMK A01 T01980184  RH  092%=      5-min Rain = 0
KMD1 111230Z 00000KT 20/19 A3013 RMK A01 T01990185  RH  092%=      5-min Rain = 0
KMD1 111231Z 00000KT 20/19 A3013 RMK A01 T01990185  RH  091%=      5-min Rain = 0
KMD1 111232Z 00000KT 20/19 A3013 RMK A01 T02000185  RH  091%=      5-min Rain = 0
KMD1 111233Z 00000KT 20/19 A3013 RMK A01 T02010186  RH  091%=      5-min Rain = 0
KMD1 111234Z 00000KT 20/19 A3013 RMK A01 T02020185  RH  090%=      5-min Rain = 0
KMD1 111235Z 00000KT 20/18 A3013 RMK A01 T02040184  RH  089%=      5-min Rain = 0
KMD1 111236Z 00000KT 20/18 A3013 RMK A01 T02040184  RH  088%=      5-min Rain = 0
KMD1 111237Z 00000KT 21/18 A3013 RMK A01 T02050184  RH  088%=      5-min Rain = 0
KMD1 111238Z 21000KT 21/19 A3013 RMK A01 T02060185  RH  088%=      5-min Rain = 0
KMD1 111239Z 21001KT 21/19 A3013 RMK A01 T02070186  RH  087%=      5-min Rain = 0
KMD1 111240Z 22001KT 21/19 A3013 RMK A01 T02070186  RH  088%=      5-min Rain = 0
KMD1 111241Z 22001KT 21/19 A3013 RMK A01 T02080187  RH  087%=      5-min Rain = 0
KMD1 111242Z 23001KT 21/19 A3013 RMK A01 T02090187  RH  088%=      5-min Rain = 0
KMD1 111243Z 23002KT 21/19 A3013 RMK A01 T02090188  RH  088%=      5-min Rain = 0
KMD1 111244Z 22002KT 21/19 A3013 RMK A01 T02090188  RH  088%=      5-min Rain = 0
KMD1 111245Z 22001KT 21/19 A3013 RMK A01 T02100189  RH  088%=      5-min Rain = 0
KMD1 111246Z 22002KT 21/19 A3013 RMK A01 T02110190  RH  088%=      5-min Rain = 0
KMD1 111247Z 21002KT 21/19 A3013 RMK A01 T02120190  RH  087%=      5-min Rain = 0
KMD1 111248Z 21002KT 21/19 A3013 RMK A01 T02120190  RH  087%=      5-min Rain = 0
KMD1 111249Z 21002KT 21/19 A3013 RMK A01 T02130190  RH  087%=      5-min Rain = 0
KMD1 111250Z 21002KT 21/19 A3013 RMK A01 T02130191  RH  087%=      5-min Rain = 0
KMD1 111251Z 21002KT 21/19 A3013 RMK A01 T02140192  RH  087%=      5-min Rain = 0
KMD1 111252Z 21001KT 22/19 A3013 RMK A01 T02150193  RH  087%=      5-min Rain = 0
KMD1 111253Z 20001KT 22/19 A3013 RMK A01 T02160193  RH  087%=      5-min Rain = 0
KMD1 111254Z 21002KT 22/19 A3013 RMK A01 T02170194  RH  087%=      5-min Rain = 0
KMD1 111255Z 20001KT 22/20 A3013 RMK A01 T02180195  RH  087%=      5-min Rain = 0
KMD1 111256Z 20001KT 22/20 A3013 RMK A01 T02190195  RH  086%=      5-min Rain = 0
KMD1 111257Z 21000KT 22/20 A3013 RMK A01 T02200196  RH  086%=      5-min Rain = 0
KMD1 111258Z 23001KT 22/20 A3013 RMK A01 T02210197  RH  086%=      5-min Rain = 0
KMD1 111259Z 22002KT 22/20 A3013 RMK A01 T02230197  RH  085%=      5-min Rain = 0
KMD1 111300Z 25001KT 22/20 A3014 RMK A01 T02240198  RH  085%=      5-min Rain = 0
KMD1 111301Z 28001KT 23/20 A3014 RMK A01 T02260198  RH  084%=      5-min Rain = 0
KMD1 111302Z 29001KT 23/20 A3014 RMK A01 T02260196  RH  083%=      5-min Rain = 0
KMD1 111303Z 29001KT 23/19 A3014 RMK A01 T02260194  RH  082%=      5-min Rain = 0
KMD1 111304Z 28000KT 23/19 A3014 RMK A01 T02270194  RH  082%=      5-min Rain = 0
KMD1 111305Z 00000KT 23/20 A3014 RMK A01 T02270195  RH  082%=      5-min Rain = 0
KMD1 111306Z 26000KT 23/20 A3014 RMK A01 T02280196  RH  082%=      5-min Rain = 0
KMD1 111307Z 00000KT 23/20 A3014 RMK A01 T02290196  RH  082%=      5-min Rain = 0
KMD1 111308Z 00000KT 23/20 A3014 RMK A01 T02300197  RH  082%=      5-min Rain = 0
KMD1 111309Z 00000KT 23/20 A3014 RMK A01 T02310198  RH  081%=      5-min Rain = 0
KMD1 111310Z 00000KT 23/20 A3014 RMK A01 T02330199  RH  081%=      5-min Rain = 0
KMD1 111311Z 00000KT 23/20 A3014 RMK A01 T02340199  RH  081%=      5-min Rain = 0
KMD1 111312Z 00000KT 24/20 A3014 RMK A01 T02350199  RH  080%=      5-min Rain = 0
KMD1 111313Z 00000KT 24/20 A3014 RMK A01 T02370200  RH  080%=      5-min Rain = 0
KMD1 111314Z 13000KT 24/20 A3014 RMK A01 T02400201  RH  079%=      5-min Rain = 0
KMD1 111315Z 16000KT 24/20 A3014 RMK A01 T02420202  RH  078%=      5-min Rain = 0
KMD1 111316Z 17000KT 24/20 A3014 RMK A01 T02430203  RH  078%=      5-min Rain = 0
KMD1 111317Z 16000KT 24/20 A3013 RMK A01 T02440203  RH  078%=      5-min Rain = 0
KMD1 111318Z 16001KT 25/20 A3014 RMK A01 T02450204  RH  078%=      5-min Rain = 0
KMD1 111319Z 18001KT 25/20 A3014 RMK A01 T02460204  RH  078%=      5-min Rain = 0
KMD1 111320Z 18002KT 25/20 A3014 RMK A01 T02460204  RH  077%=      5-min Rain = 0
KMD1 111321Z 20002KT 25/20 A3014 RMK A01 T02460204  RH  078%=      5-min Rain = 0
KMD1 111322Z 19002KT 25/20 A3014 RMK A01 T02460204  RH  078%=      5-min Rain = 0
KMD1 111323Z 19001KT 25/20 A3014 RMK A01 T02450204  RH  078%=      5-min Rain = 0
KMD1 111324Z 21002KT 25/20 A3014 RMK A01 T02450204  RH  078%=      5-min Rain = 0
KMD1 111325Z 22002KT 25/20 A3014 RMK A01 T02450204  RH  078%=      5-min Rain = 0
KMD1 111326Z 22003KT 25/21 A3014 RMK A01 T02450205  RH  078%=      5-min Rain = 0
KMD1 111327Z 19002KT 24/20 A3014 RMK A01 T02440204  RH  078%=      5-min Rain = 0
KMD1 111328Z 19001KT 24/21 A3014 RMK A01 T02440205  RH  079%=      5-min Rain = 0
KMD1 111329Z 21001KT 24/21 A3014 RMK A01 T02440205  RH  079%=      5-min Rain = 0
KMD1 111330Z 21004KT 25/21 A3014 RMK A01 T02450206  RH  079%=      5-min Rain = 0
KMD1 111331Z 21004KT 25/21 A3014 RMK A01 T02460207  RH  079%=      5-min Rain = 0
KMD1 111332Z 21003KT 25/21 A3014 RMK A01 T02470207  RH  079%=      5-min Rain = 0
KMD1 111333Z 21005KT 25/21 A3014 RMK A01 T02480207  RH  078%=      5-min Rain = 0
KMD1 111334Z 20006KT 25/21 A3014 RMK A01 T02490207  RH  078%=      5-min Rain = 0
KMD1 111335Z 20006KT 25/21 A3014 RMK A01 T02500206  RH  077%=      5-min Rain = 0
KMD1 111336Z 19004KT 25/21 A3014 RMK A01 T02520208  RH  077%=      5-min Rain = 0
KMD1 111337Z 20005KT 25/21 A3014 RMK A01 T02530208  RH  076%=      5-min Rain = 0
KMD1 111338Z 20005KT 25/21 A3014 RMK A01 T02540207  RH  075%=      5-min Rain = 0
KMD1 111339Z 21005KT 25/21 A3014 RMK A01 T02540207  RH  075%=      5-min Rain = 0
KMD1 111340Z 21004KT 26/21 A3014 RMK A01 T02550208  RH  075%=      5-min Rain = 0
KMD1 111341Z 20004KT 26/21 A3014 RMK A01 T02550208  RH  075%=      5-min Rain = 0
KMD1 111342Z 20005KT 26/21 A3014 RMK A01 T02560208  RH  075%=      5-min Rain = 0
KMD1 111343Z 23005KT 26/21 A3014 RMK A01 T02560207  RH  074%=      5-min Rain = 0
KMD1 111344Z 22006KT 26/21 A3014 RMK A01 T02550207  RH  074%=      5-min Rain = 0
KMD1 111345Z 21004KT 26/21 A3014 RMK A01 T02550208  RH  075%=      5-min Rain = 0
KMD1 111346Z 21005KT 26/21 A3014 RMK A01 T02570209  RH  075%=      5-min Rain = 0
KMD1 111347Z 22007KT 26/21 A3014 RMK A01 T02580206  RH  073%=      5-min Rain = 0
KMD1 111348Z 22007KT 26/21 A3014 RMK A01 T02580206  RH  073%=      5-min Rain = 0
KMD1 111349Z 21007KT 26/21 A3014 RMK A01 T02580207  RH  073%=      5-min Rain = 0
KMD1 111350Z 21007KT 26/21 A3014 RMK A01 T02580206  RH  073%=      5-min Rain = 0
KMD1 111351Z 22007KT 26/21 A3014 RMK A01 T02580206  RH  073%=      5-min Rain = 0
KMD1 111352Z 22005KT 26/21 A3015 RMK A01 T02580206  RH  073%=      5-min Rain = 0
KMD1 111353Z 20005KT 26/21 A3015 RMK A01 T02590208  RH  074%=      5-min Rain = 0
KMD1 111354Z 20006KT 26/21 A3014 RMK A01 T02610207  RH  072%=      5-min Rain = 0
KMD1 111355Z 21004KT 26/21 A3015 RMK A01 T02620208  RH  072%=      5-min Rain = 0
KMD1 111356Z 21006KT 26/21 A3015 RMK A01 T02630208  RH  072%=      5-min Rain = 0
KMD1 111357Z 21007KT 26/21 A3015 RMK A01 T02640208  RH  071%=      5-min Rain = 0
KMD1 111358Z 20007KT 26/21 A3015 RMK A01 T02630207  RH  071%=      5-min Rain = 0
KMD1 111359Z 19007KT 26/21 A3015 RMK A01 T02630207  RH  071%=      5-min Rain = 0
KMD1 111400Z 22006KT 26/21 A3015 RMK A01 T02640207  RH  071%=      5-min Rain = 0
KMD1 111401Z 23007KT 27/21 A3015 RMK A01 T02650206  RH  070%=      5-min Rain = 0
KMD1 111402Z 23009KT 27/21 A3015 RMK A01 T02650205  RH  070%=      5-min Rain = 0
KMD1 111403Z 23009KT 27/21 A3015 RMK A01 T02650205  RH  070%=      5-min Rain = 0
KMD1 111404Z 23009KT 26/21 A3015 RMK A01 T02640205  RH  070%=      5-min Rain = 0
KMD1 111405Z 22008KT 27/21 A3015 RMK A01 T02650205  RH  070%=      5-min Rain = 0
KMD1 111406Z 23009KT 27/21 A3015 RMK A01 T02660205  RH  069%=      5-min Rain = 0
KMD1 111407Z 22010KT 27/21 A3015 RMK A01 T02650205  RH  069%=      5-min Rain = 0
KMD1 111408Z 22008KT 26/20 A3015 RMK A01 T02640204  RH  069%=      5-min Rain = 0
KMD1 111409Z 22007KT 26/21 A3015 RMK A01 T02640205  RH  070%=      5-min Rain = 0
KMD1 111410Z 22008KT 26/21 A3015 RMK A01 T02640205  RH  070%=      5-min Rain = 0
KMD1 111411Z 22009KT 27/21 A3015 RMK A01 T02650205  RH  070%=      5-min Rain = 0
KMD1 111412Z 22010KT 27/21 A3015 RMK A01 T02650205  RH  070%=      5-min Rain = 0
KMD1 111413Z 21008KT 27/21 A3015 RMK A01 T02650205  RH  069%=      5-min Rain = 0
KMD1 111414Z 21009KT 27/20 A3015 RMK A01 T02650204  RH  069%=      5-min Rain = 0
KMD1 111415Z 21009KT 27/20 A3015 RMK A01 T02660204  RH  069%=      5-min Rain = 0
KMD1 111416Z 22006KT 27/21 A3015 RMK A01 T02670205  RH  069%=      5-min Rain = 0
KMD1 111417Z 21006KT 27/21 A3015 RMK A01 T02680206  RH  069%=      5-min Rain = 0
KMD1 111418Z 20006KT 27/21 A3015 RMK A01 T02690205  RH  068%=      5-min Rain = 0
KMD1 111419Z 20005KT 27/21 A3015 RMK A01 T02700206  RH  068%=      5-min Rain = 0
KMD1 111420Z 20004KT 27/21 A3015 RMK A01 T02710208  RH  068%=      5-min Rain = 0
KMD1 111421Z 21007KT 27/21 A3015 RMK A01 T02730206  RH  067%=      5-min Rain = 0
KMD1 111422Z 21007KT 27/21 A3015 RMK A01 T02730206  RH  067%=      5-min Rain = 0
KMD1 111423Z 22006KT 27/21 A3015 RMK A01 T02730205  RH  066%=      5-min Rain = 0
KMD1 111424Z 22007KT 27/21 A3015 RMK A01 T02720206  RH  067%=      5-min Rain = 0
KMD1 111425Z 22008KT 27/21 A3015 RMK A01 T02720205  RH  067%=      5-min Rain = 0
KMD1 111426Z 21006KT 27/21 A3014 RMK A01 T02710206  RH  068%=      5-min Rain = 0
KMD1 111427Z 21007KT 27/21 A3015 RMK A01 T02710205  RH  067%=      5-min Rain = 0
KMD1 111428Z 22004KT 27/21 A3015 RMK A01 T02710205  RH  067%=      5-min Rain = 0
KMD1 111429Z 21007KT 27/21 A3015 RMK A01 T02720206  RH  067%=      5-min Rain = 0
KMD1 111430Z 21008KT 27/21 A3015 RMK A01 T02740205  RH  066%=      5-min Rain = 0
KMD1 111431Z 20007KT 28/21 A3015 RMK A01 T02750205  RH  066%=      5-min Rain = 0
KMD1 111432Z 21005KT 28/21 A3015 RMK A01 T02760207  RH  066%=      5-min Rain = 0
KMD1 111433Z 21009KT 28/21 A3015 RMK A01 T02780205  RH  064%=      5-min Rain = 0
KMD1 111434Z 21009KT 28/20 A3015 RMK A01 T02780204  RH  064%=      5-min Rain = 0
KMD1 111435Z 22009KT 28/20 A3015 RMK A01 T02770204  RH  064%=      5-min Rain = 0
KMD1 111436Z 21008KT 28/20 A3014 RMK A01 T02760203  RH  065%=      5-min Rain = 0
KMD1 111437Z 21008KT 28/20 A3014 RMK A01 T02750202  RH  064%=      5-min Rain = 0
KMD1 111438Z 21007KT 28/20 A3014 RMK A01 T02750204  RH  065%=      5-min Rain = 0
KMD1 111439Z 22007KT 28/21 A3014 RMK A01 T02770205  RH  065%=      5-min Rain = 0
KMD1 111440Z 19007KT 28/20 A3014 RMK A01 T02790203  RH  063%=      5-min Rain = 0
KMD1 111441Z 22009KT 28/20 A3014 RMK A01 T02790202  RH  063%=      5-min Rain = 0
KMD1 111442Z 22010KT 28/20 A3014 RMK A01 T02790201  RH  063%=      5-min Rain = 0
KMD1 111443Z 23009KT 28/20 A3014 RMK A01 T02770200  RH  063%=      5-min Rain = 0
KMD1 111444Z 23007KT 28/20 A3014 RMK A01 T02770200  RH  063%=      5-min Rain = 0
KMD1 111445Z 23008KT 28/20 A3014 RMK A01 T02780202  RH  063%=      5-min Rain = 0
KMD1 111446Z 23007KT 28/20 A3014 RMK A01 T02790202  RH  063%=      5-min Rain = 0
KMD1 111447Z 23009KT 28/20 A3014 RMK A01 T02790203  RH  063%=      5-min Rain = 0
KMD1 111448Z 21007KT 28/20 A3014 RMK A01 T02790204  RH  064%=      5-min Rain = 0
KMD1 111449Z 21008KT 28/20 A3014 RMK A01 T02800200  RH  062%=      5-min Rain = 0
KMD1 111450Z 21007KT 28/20 A3014 RMK A01 T02810202  RH  062%=      5-min Rain = 0
KMD1 111451Z 20003KT 28/20 A3014 RMK A01 T02810204  RH  063%=      5-min Rain = 0
KMD1 111452Z 20007KT 28/21 A3014 RMK A01 T02830205  RH  062%=      5-min Rain = 0
KMD1 111453Z 21006KT 29/21 A3014 RMK A01 T02850205  RH  062%=      5-min Rain = 0
KMD1 111454Z 23007KT 29/20 A3014 RMK A01 T02850202  RH  061%=      5-min Rain = 0
KMD1 111455Z 23007KT 28/20 A3014 RMK A01 T02840203  RH  061%=      5-min Rain = 0
KMD1 111456Z 23005KT 28/20 A3014 RMK A01 T02820202  RH  062%=      5-min Rain = 0
KMD1 111457Z 22006KT 28/20 A3014 RMK A01 T02820201  RH  061%=      5-min Rain = 0
KMD1 111458Z 22008KT 28/20 A3014 RMK A01 T02820202  RH  062%=      5-min Rain = 0
KMD1 111459Z 21006KT 28/20 A3014 RMK A01 T02830203  RH  062%=      5-min Rain = 0
KMD1 111500Z 20004KT 29/21 A3014 RMK A01 T02850206  RH  062%=      5-min Rain = 0
KMD1 111501Z 21008KT 29/21 A3014 RMK A01 T02880205  RH  061%=      5-min Rain = 0
KMD1 111502Z 21006KT 29/20 A3014 RMK A01 T02880203  RH  060%=      5-min Rain = 0
KMD1 111503Z 18005KT 29/21 A3014 RMK A01 T02880205  RH  061%=      5-min Rain = 0
KMD1 111504Z 19008KT 29/20 A3014 RMK A01 T02880201  RH  059%=      5-min Rain = 0
KMD1 111505Z 17008KT 29/20 A3014 RMK A01 T02880203  RH  060%=      5-min Rain = 0
KMD1 111506Z 19007KT 29/20 A3014 RMK A01 T02890204  RH  060%=      5-min Rain = 0
KMD1 111507Z 19006KT 29/20 A3014 RMK A01 T02900202  RH  059%=      5-min Rain = 0
KMD1 111508Z 20006KT 29/20 A3014 RMK A01 T02900200  RH  059%=      5-min Rain = 0
KMD1 111509Z 21004KT 29/20 A3014 RMK A01 T02890201  RH  059%=      5-min Rain = 0
KMD1 111510Z 21007KT 29/20 A3014 RMK A01 T02880200  RH  059%=      5-min Rain = 0
KMD1 111511Z 20009KT 29/20 A3014 RMK A01 T02890201  RH  059%=      5-min Rain = 0
KMD1 111512Z 19006KT 29/20 A3014 RMK A01 T02890200  RH  059%=      5-min Rain = 0
KMD1 111513Z 20006KT 29/20 A3014 RMK A01 T02880199  RH  059%=      5-min Rain = 0
KMD1 111514Z 21004KT 29/20 A3014 RMK A01 T02860200  RH  060%=      5-min Rain = 0
KMD1 111515Z 22007KT 29/20 A3014 RMK A01 T02860201  RH  060%=      5-min Rain = 0
KMD1 111516Z 21005KT 29/20 A3014 RMK A01 T02870200  RH  059%=      5-min Rain = 0
KMD1 111517Z 21007KT 29/20 A3014 RMK A01 T02890202  RH  059%=      5-min Rain = 0
KMD1 111518Z 19006KT 29/20 A3014 RMK A01 T02910202  RH  059%=      5-min Rain = 0
KMD1 111519Z 18004KT 29/20 A3014 RMK A01 T02920201  RH  058%=      5-min Rain = 0
KMD1 111520Z 16005KT 29/20 A3014 RMK A01 T02920203  RH  058%=      5-min Rain = 0
KMD1 111521Z 17009KT 29/20 A3014 RMK A01 T02930203  RH  058%=      5-min Rain = 0
KMD1 111522Z 18009KT 30/20 A3014 RMK A01 T02950200  RH  057%=      5-min Rain = 0
KMD1 111523Z 18008KT 29/20 A3014 RMK A01 T02940199  RH  057%=      5-min Rain = 0
KMD1 111524Z 17008KT 29/20 A3014 RMK A01 T02920200  RH  057%=      5-min Rain = 0
KMD1 111525Z 16007KT 29/20 A3014 RMK A01 T02910198  RH  057%=      5-min Rain = 0
KMD1 111526Z 16007KT 29/20 A3014 RMK A01 T02910199  RH  058%=      5-min Rain = 0
KMD1 111527Z 16008KT 29/20 A3014 RMK A01 T02920199  RH  057%=      5-min Rain = 0
KMD1 111528Z 16007KT 29/20 A3014 RMK A01 T02920197  RH  056%=      5-min Rain = 0
KMD1 111529Z 18005KT 29/20 A3014 RMK A01 T02920196  RH  056%=      5-min Rain = 0
KMD1 111530Z 18006KT 29/20 A3014 RMK A01 T02920198  RH  057%=      5-min Rain = 0
KMD1 111531Z 17008KT 29/20 A3014 RMK A01 T02940198  RH  056%=      5-min Rain = 0
KMD1 111532Z 16007KT 30/20 A3014 RMK A01 T02970195  RH  054%=      5-min Rain = 0
KMD1 111533Z 17008KT 30/20 A3015 RMK A01 T02960196  RH  055%=      5-min Rain = 0
KMD1 111534Z 16008KT 30/20 A3015 RMK A01 T02950198  RH  056%=      5-min Rain = 0
KMD1 111535Z 17008KT 30/20 A3014 RMK A01 T02950199  RH  056%=      5-min Rain = 0
KMD1 111536Z 18008KT 30/20 A3015 RMK A01 T02970201  RH  056%=      5-min Rain = 0
KMD1 111537Z 19005KT 30/20 A3015 RMK A01 T02980198  RH  055%=      5-min Rain = 0
KMD1 111538Z 19004KT 30/20 A3015 RMK A01 T02980199  RH  055%=      5-min Rain = 0
KMD1 111539Z 19005KT 30/20 A3014 RMK A01 T02970198  RH  055%=      5-min Rain = 0
KMD1 111540Z 18007KT 30/20 A3014 RMK A01 T02970197  RH  055%=      5-min Rain = 0
KMD1 111541Z 20005KT 30/20 A3014 RMK A01 T02960197  RH  055%=      5-min Rain = 0
KMD1 111542Z 20007KT 30/20 A3014 RMK A01 T02960196  RH  055%=      5-min Rain = 0
KMD1 111543Z 19007KT 30/20 A3014 RMK A01 T02970196  RH  055%=      5-min Rain = 0
KMD1 111544Z 18006KT 30/20 A3014 RMK A01 T02970197  RH  055%=      5-min Rain = 0
KMD1 111545Z 20006KT 30/19 A3014 RMK A01 T02960194  RH  054%=      5-min Rain = 0
KMD1 111546Z 19004KT 30/19 A3015 RMK A01 T02960192  RH  053%=      5-min Rain = 0
KMD1 111547Z 19005KT 30/19 A3014 RMK A01 T02960193  RH  054%=      5-min Rain = 0
KMD1 111548Z 20006KT 30/19 A3014 RMK A01 T02970194  RH  054%=      5-min Rain = 0
KMD1 111549Z 21003KT 30/19 A3015 RMK A01 T02980193  RH  053%=      5-min Rain = 0
KMD1 111550Z 22003KT 30/20 A3014 RMK A01 T03000199  RH  055%=      5-min Rain = 0
KMD1 111551Z 22006KT 30/20 A3014 RMK A01 T03020198  RH  054%=      5-min Rain = 0
KMD1 111552Z 22006KT 30/20 A3014 RMK A01 T03030198  RH  054%=      5-min Rain = 0
KMD1 111553Z 19005KT 30/20 A3014 RMK A01 T03030198  RH  054%=      5-min Rain = 0
KMD1 111554Z 17006KT 30/20 A3014 RMK A01 T03040199  RH  054%=      5-min Rain = 0
KMD1 111555Z 17008KT 31/20 A3014 RMK A01 T03050197  RH  053%=      5-min Rain = 0
KMD1 111556Z 17007KT 30/20 A3014 RMK A01 T03040197  RH  053%=      5-min Rain = 0
KMD1 111557Z 17006KT 30/20 A3014 RMK A01 T03030197  RH  053%=      5-min Rain = 0
KMD1 111558Z 16007KT 30/20 A3014 RMK A01 T03020197  RH  053%=      5-min Rain = 0
KMD1 111559Z 18006KT 30/20 A3014 RMK A01 T03030195  RH  052%=      5-min Rain = 0
KMD1 111600Z 18008KT 30/19 A3014 RMK A01 T03040194  RH  052%=      5-min Rain = 0
KMD1 111601Z 18008KT 30/19 A3014 RMK A01 T03040194  RH  052%=      5-min Rain = 0
KMD1 111602Z 18008KT 30/19 A3014 RMK A01 T03030191  RH  051%=      5-min Rain = 0
KMD1 111603Z 18007KT 30/19 A3014 RMK A01 T03030192  RH  051%=      5-min Rain = 0
KMD1 111604Z 18007KT 30/20 A3014 RMK A01 T03030195  RH  052%=      5-min Rain = 0
KMD1 111605Z 20007KT 31/19 A3014 RMK A01 T03050190  RH  050%=      5-min Rain = 0
KMD1 111606Z 18004KT 31/19 A3014 RMK A01 T03050189  RH  050%=      5-min Rain = 0
KMD1 111607Z 20004KT 31/19 A3014 RMK A01 T03050193  RH  051%=      5-min Rain = 0
KMD1 111608Z 23005KT 31/19 A3014 RMK A01 T03070192  RH  050%=      5-min Rain = 0
KMD1 111609Z 20006KT 31/19 A3014 RMK A01 T03070192  RH  050%=      5-min Rain = 0
KMD1 111610Z 19006KT 31/19 A3014 RMK A01 T03070193  RH  050%=      5-min Rain = 0
KMD1 111611Z 21006KT 31/19 A3014 RMK A01 T03070191  RH  050%=      5-min Rain = 0
KMD1 111612Z 22005KT 31/19 A3014 RMK A01 T03060193  RH  051%=      5-min Rain = 0
KMD1 111613Z 20006KT 31/20 A3014 RMK A01 T03070195  RH  051%=      5-min Rain = 0
KMD1 111614Z 20006KT 31/19 A3014 RMK A01 T03090192  RH  050%=      5-min Rain = 0
KMD1 111615Z 21006KT 31/19 A3014 RMK A01 T03100191  RH  049%=      5-min Rain = 0
KMD1 111616Z 20005KT 31/19 A3014 RMK A01 T03080192  RH  050%=      5-min Rain = 0
KMD1 111617Z 22002KT 31/19 A3014 RMK A01 T03060192  RH  050%=      5-min Rain = 0
KMD1 111618Z 24001KT 31/19 A3014 RMK A01 T03050191  RH  051%=      5-min Rain = 0
KMD1 111619Z 24004G9KT 31/19 A3014 RMK A01 T03050191  RH  050%=      5-min Rain = 0
KMD1 111620Z 19009KT 31/19 A3013 RMK A01 T03070194  RH  051%=      5-min Rain = 0
KMD1 111621Z 20006KT 31/19 A3014 RMK A01 T03090189  RH  049%=      5-min Rain = 0
KMD1 111622Z 22005KT 31/19 A3014 RMK A01 T03090192  RH  050%=      5-min Rain = 0
KMD1 111623Z 22005KT 31/19 A3014 RMK A01 T03080194  RH  051%=      5-min Rain = 0
KMD1 111624Z 21003KT 31/19 A3013 RMK A01 T03080194  RH  050%=      5-min Rain = 0
KMD1 111625Z 21006KT 31/19 A3013 RMK A01 T03080194  RH  051%=      5-min Rain = 0
KMD1 111626Z 22007KT 31/19 A3013 RMK A01 T03080191  RH  050%=      5-min Rain = 0
KMD1 111627Z 18008KT 31/19 A3013 RMK A01 T03080194  RH  050%=      5-min Rain = 0
KMD1 111628Z 18011KT 31/19 A3013 RMK A01 T03120193  RH  049%=      5-min Rain = 0
KMD1 111629Z 18009KT 31/19 A3013 RMK A01 T03120194  RH  050%=      5-min Rain = 0
KMD1 111630Z 20007KT 31/19 A3013 RMK A01 T03100193  RH  050%=      5-min Rain = 0
KMD1 111631Z 20005KT 31/19 A3013 RMK A01 T03090194  RH  051%=      5-min Rain = 0
KMD1 111632Z 17004KT 31/19 A3013 RMK A01 T03100192  RH  049%=      5-min Rain = 0
KMD1 111633Z 14002KT 31/19 A3013 RMK A01 T03100191  RH  049%=      5-min Rain = 0
KMD1 111634Z 16002KT 31/19 A3013 RMK A01 T03100192  RH  050%=      5-min Rain = 0
KMD1 111635Z 22002KT 31/19 A3013 RMK A01 T03100192  RH  049%=      5-min Rain = 0
KMD1 111636Z 28002KT 31/19 A3013 RMK A01 T03130190  RH  048%=      5-min Rain = 0
KMD1 111637Z 25003KT 31/19 A3013 RMK A01 T03140190  RH  048%=      5-min Rain = 0
KMD1 111638Z 22004KT 32/19 A3013 RMK A01 T03160189  RH  047%=      5-min Rain = 0
KMD1 111639Z 19005KT 31/19 A3013 RMK A01 T03140191  RH  048%=      5-min Rain = 0
KMD1 111640Z 19005KT 31/19 A3013 RMK A01 T03130191  RH  048%=      5-min Rain = 0
KMD1 111641Z 13007KT 31/18 A3013 RMK A01 T03140177  RH  044%=      5-min Rain = 0
KMD1 111642Z 13007KT 32/18 A3013 RMK A01 T03160175  RH  043%=      5-min Rain = 0
KMD1 111643Z 14006KT 32/18 A3013 RMK A01 T03180178  RH  043%=      5-min Rain = 0
KMD1 111644Z 14006KT 32/18 A3013 RMK A01 T03230181  RH  043%=      5-min Rain = 0
KMD1 111645Z 13005KT 33/17 A3013 RMK A01 T03260174  RH  040%=      5-min Rain = 0
KMD1 111646Z 14004KT 32/18 A3013 RMK A01 T03240176  RH  041%=      5-min Rain = 0
KMD1 111647Z 17005KT 32/18 A3013 RMK A01 T03220176  RH  042%=      5-min Rain = 0
KMD1 111648Z 18007KT 32/17 A3013 RMK A01 T03200174  RH  042%=      5-min Rain = 0
KMD1 111649Z 17005KT 32/18 A3013 RMK A01 T03170175  RH  042%=      5-min Rain = 0
KMD1 111650Z 17003KT 32/18 A3013 RMK A01 T03180179  RH  044%=      5-min Rain = 0
KMD1 111651Z 18003KT 32/18 A3013 RMK A01 T03190175  RH  042%=      5-min Rain = 0
KMD1 111652Z 17010KT 32/18 A3013 RMK A01 T03200176  RH  042%=      5-min Rain = 0
KMD1 111653Z 16012KT 32/17 A3013 RMK A01 T03210173  RH  041%=      5-min Rain = 0
KMD1 111654Z 15009KT 32/17 A3013 RMK A01 T03210174  RH  041%=      5-min Rain = 0
KMD1 111655Z 14010KT 32/18 A3013 RMK A01 T03200175  RH  042%=      5-min Rain = 0
KMD1 111656Z 15009KT 32/18 A3013 RMK A01 T03200176  RH  042%=      5-min Rain = 0
KMD1 111657Z 15008KT 32/18 A3013 RMK A01 T03200182  RH  044%=      5-min Rain = 0
KMD1 111658Z 16006KT 32/18 A3013 RMK A01 T03200184  RH  044%=      5-min Rain = 0
KMD1 111659Z 14005KT 32/18 A3013 RMK A01 T03190182  RH  044%=      5-min Rain = 0
KMD1 111700Z 15005KT 32/18 A3013 RMK A01 T03180182  RH  044%=      5-min Rain = 0
KMD1 111701Z 15005KT 32/18 A3013 RMK A01 T03180184  RH  045%=      5-min Rain = 0
KMD1 111702Z 13003KT 32/18 A3013 RMK A01 T03200182  RH  044%=      5-min Rain = 0
KMD1 111703Z 12001KT 32/18 A3013 RMK A01 T03210178  RH  043%=      5-min Rain = 0
KMD1 111704Z 15004KT 32/18 A3013 RMK A01 T03210183  RH  044%=      5-min Rain = 0
KMD1 111705Z 13007G12KT 32/18 A3013 RMK A01 T03220178  RH  042%=      5-min Rain = 0
KMD1 111706Z 12009KT 32/17 A3013 RMK A01 T03230166  RH  039%=      5-min Rain = 0
KMD1 111707Z 12008KT 32/16 A3013 RMK A01 T03240163  RH  038%=      5-min Rain = 0
KMD1 111708Z 11008KT 33/16 A3013 RMK A01 T03270160  RH  037%=      5-min Rain = 0
KMD1 111709Z 12008KT 33/17 A3013 RMK A01 T03300165  RH  037%=      5-min Rain = 0
KMD1 111710Z 13010KT 33/17 A3013 RMK A01 T03280168  RH  038%=      5-min Rain = 0
KMD1 111711Z 15012KT 33/17 A3013 RMK A01 T03280167  RH  038%=      5-min Rain = 0
KMD1 111712Z 15011KT 33/17 A3013 RMK A01 T03290168  RH  038%=      5-min Rain = 0
KMD1 111713Z 14010KT 33/17 A3013 RMK A01 T03290167  RH  038%=      5-min Rain = 0
KMD1 111714Z 15007KT 33/17 A3013 RMK A01 T03290167  RH  038%=      5-min Rain = 0
KMD1 111715Z 15012KT 33/17 A3013 RMK A01 T03310166  RH  037%=      5-min Rain = 0
KMD1 111716Z 15009KT 33/17 A3013 RMK A01 T03280168  RH  038%=      5-min Rain = 0
KMD1 111717Z 12007KT 33/16 A3013 RMK A01 T03260164  RH  038%=      5-min Rain = 0
KMD1 111718Z 13004KT 33/16 A3013 RMK A01 T03250161  RH  037%=      5-min Rain = 0
KMD1 111719Z 15004KT 32/17 A3013 RMK A01 T03240166  RH  039%=      5-min Rain = 0
KMD1 111720Z 13007KT 33/17 A3013 RMK A01 T03270166  RH  038%=      5-min Rain = 0
KMD1 111721Z 13006G11KT 33/17 A3013 RMK A01 T03280165  RH  038%=      5-min Rain = 0
KMD1 111722Z 14006KT 33/17 A3013 RMK A01 T03280168  RH  038%=      5-min Rain = 0
KMD1 111723Z 17013KT 33/17 A3013 RMK A01 T03280171  RH  039%=      5-min Rain = 0
KMD1 111724Z 17009KT 33/17 A3013 RMK A01 T03290172  RH  039%=      5-min Rain = 0
KMD1 111725Z 17008KT 33/17 A3013 RMK A01 T03290173  RH  039%=      5-min Rain = 0
KMD1 111726Z 16008KT 33/17 A3013 RMK A01 T03290173  RH  039%=      5-min Rain = 0
KMD1 111727Z 16004KT 33/17 A3013 RMK A01 T03270174  RH  040%=      5-min Rain = 0
KMD1 111728Z 15004KT 33/17 A3013 RMK A01 T03250173  RH  040%=      5-min Rain = 0
KMD1 111729Z 16007KT 33/17 A3013 RMK A01 T03250172  RH  040%=      5-min Rain = 0
KMD1 111730Z 18011KT 33/17 A3013 RMK A01 T03270168  RH  039%=      5-min Rain = 0
KMD1 111731Z 14011KT 33/17 A3013 RMK A01 T03280166  RH  038%=      5-min Rain = 0
KMD1 111732Z 11008KT 33/16 A3013 RMK A01 T03280164  RH  037%=      5-min Rain = 0
KMD1 111733Z 10009KT 33/17 A3013 RMK A01 T03270168  RH  039%=      5-min Rain = 0
KMD1 111734Z 14012KT 33/17 A3012 RMK A01 T03280172  RH  039%=      5-min Rain = 0
KMD1 111735Z 15009KT 33/17 A3012 RMK A01 T03310172  RH  039%=      5-min Rain = 0
KMD1 111736Z 16010KT 33/18 A3012 RMK A01 T03290177  RH  040%=      5-min Rain = 0
KMD1 111737Z 13006KT 33/18 A3012 RMK A01 T03300179  RH  041%=      5-min Rain = 0
KMD1 111738Z 12012KT 33/17 A3012 RMK A01 T03320172  RH  038%=      5-min Rain = 0
KMD1 111739Z 12011KT 33/16 A3012 RMK A01 T03330161  RH  036%=      5-min Rain = 0
KMD1 111740Z 13010KT 33/16 A3012 RMK A01 T03330159  RH  035%=      5-min Rain = 0
KMD1 111741Z 14007KT 33/16 A3012 RMK A01 T03320161  RH  036%=      5-min Rain = 0
KMD1 111742Z 14012KT 33/16 A3012 RMK A01 T03310164  RH  037%=      5-min Rain = 0
KMD1 111743Z 13012KT 33/17 A3012 RMK A01 T03320167  RH  037%=      5-min Rain = 0
KMD1 111744Z 11011KT 33/17 A3012 RMK A01 T03300165  RH  037%=      5-min Rain = 0
KMD1 111745Z 11009KT 33/16 A3012 RMK A01 T03280164  RH  038%=      5-min Rain = 0
KMD1 111746Z 12009KT 33/16 A3012 RMK A01 T03270163  RH  037%=      5-min Rain = 0
KMD1 111747Z 13008KT 33/17 A3012 RMK A01 T03270165  RH  038%=      5-min Rain = 0
KMD1 111748Z 15007KT 32/17 A3012 RMK A01 T03240169  RH  039%=      5-min Rain = 0
KMD1 111749Z 17004KT 32/17 A3012 RMK A01 T03220169  RH  040%=      5-min Rain = 0
KMD1 111750Z 15005KT 32/17 A3012 RMK A01 T03240173  RH  041%=      5-min Rain = 0
KMD1 111751Z 17008KT 33/17 A3012 RMK A01 T03300174  RH  040%=      5-min Rain = 0
KMD1 111752Z 16008KT 33/18 A3012 RMK A01 T03300176  RH  040%=      5-min Rain = 0
KMD1 111753Z 17006KT 33/18 A3012 RMK A01 T03280180  RH  041%=      5-min Rain = 0
KMD1 111754Z 16007KT 33/18 A3011 RMK A01 T03300175  RH  040%=      5-min Rain = 0
KMD1 111755Z 16008KT 33/18 A3011 RMK A01 T03300177  RH  040%=      5-min Rain = 0
KMD1 111756Z 15009KT 33/18 A3011 RMK A01 T03300177  RH  040%=      5-min Rain = 0
KMD1 111757Z 15010KT 33/18 A3011 RMK A01 T03310177  RH  040%=      5-min Rain = 0
KMD1 111758Z 14010KT 33/18 A3011 RMK A01 T03320175  RH  039%=      5-min Rain = 0
KMD1 111759Z 12004KT 33/17 A3011 RMK A01 T03320172  RH  039%=      5-min Rain = 0
KMD1 111800Z 13007KT 33/17 A3011 RMK A01 T03310173  RH  039%=      5-min Rain = 0
KMD1 111801Z 15012KT 33/17 A3011 RMK A01 T03310167  RH  037%=      5-min Rain = 0
KMD1 111802Z 15010KT 33/16 A3011 RMK A01 T03310161  RH  036%=      5-min Rain = 0
KMD1 111803Z 14009KT 33/17 A3011 RMK A01 T03300165  RH  037%=      5-min Rain = 0
KMD1 111804Z 13008KT 33/17 A3011 RMK A01 T03300167  RH  038%=      5-min Rain = 0
KMD1 111805Z 13010KT 33/17 A3011 RMK A01 T03310169  RH  038%=      5-min Rain = 0
KMD1 111806Z 13006KT 33/17 A3011 RMK A01 T03320170  RH  038%=      5-min Rain = 0
KMD1 111807Z 14006KT 33/17 A3011 RMK A01 T03320170  RH  038%=      5-min Rain = 0
KMD1 111808Z 15005KT 33/17 A3011 RMK A01 T03320171  RH  038%=      5-min Rain = 0
KMD1 111809Z 14009KT 33/18 A3011 RMK A01 T03330175  RH  039%=      5-min Rain = 0
KMD1 111810Z 12011KT 34/17 A3011 RMK A01 T03360172  RH  038%=      5-min Rain = 0
KMD1 111811Z 13011KT 34/17 A3011 RMK A01 T03380172  RH  037%=      5-min Rain = 0
KMD1 111812Z 14013KT 34/18 A3011 RMK A01 T03400175  RH  037%=      5-min Rain = 0
KMD1 111813Z 14011KT 34/18 A3011 RMK A01 T03400177  RH  038%=      5-min Rain = 0
KMD1 111814Z 14011KT 34/17 A3011 RMK A01 T03400174  RH  037%=      5-min Rain = 0
KMD1 111815Z 14007KT 34/17 A3011 RMK A01 T03360174  RH  038%=      5-min Rain = 0
KMD1 111816Z 15007KT 33/18 A3011 RMK A01 T03340176  RH  039%=      5-min Rain = 0
KMD1 111817Z 14010KT 34/18 A3011 RMK A01 T03390180  RH  039%=      5-min Rain = 0
KMD1 111818Z 14009KT 34/17 A3011 RMK A01 T03410174  RH  037%=      5-min Rain = 0
KMD1 111819Z 14008KT 34/17 A3011 RMK A01 T03370170  RH  037%=      5-min Rain = 0
KMD1 111820Z 15008KT 33/17 A3011 RMK A01 T03340173  RH  038%=      5-min Rain = 0
KMD1 111821Z 14004KT 33/18 A3011 RMK A01 T03340175  RH  039%=      5-min Rain = 0
KMD1 111822Z 16004KT 34/17 A3011 RMK A01 T03360174  RH  038%=      5-min Rain = 0
KMD1 111823Z 14006KT 34/18 A301 RMK A01 T03370177  RH  039%=      5-min Rain = 0
KMD1 111824Z 16010KT 34/18 A301 RMK A01 T03400178  RH  038%=      5-min Rain = 0
KMD1 111825Z 16010KT 34/18 A301 RMK A01 T03390177  RH  038%=      5-min Rain = 0
KMD1 111826Z 16009KT 34/18 A301 RMK A01 T03370176  RH  038%=      5-min Rain = 0
KMD1 111827Z 16007KT 34/17 A301 RMK A01 T03350174  RH  038%=      5-min Rain = 0
KMD1 111828Z 17008KT 33/17 A301 RMK A01 T03340173  RH  039%=      5-min Rain = 0
KMD1 111829Z 14005KT 33/17 A301 RMK A01 T03320171  RH  038%=      5-min Rain = 0
KMD1 111830Z 09002KT 33/17 A301 RMK A01 T03300169  RH  038%=      5-min Rain = 0
KMD1 111831Z 19004G11KT 33/17 A301 RMK A01 T03300167  RH  038%=      5-min Rain = 0
KMD1 111832Z 20009KT 33/17 A301 RMK A01 T03320170  RH  038%=      5-min Rain = 0
KMD1 111833Z 21008KT 33/17 A301 RMK A01 T03340173  RH  038%=      5-min Rain = 0
KMD1 111834Z 22008KT 34/17 A301 RMK A01 T03370171  RH  037%=      5-min Rain = 0
KMD1 111835Z 20007KT 34/17 A301 RMK A01 T03370170  RH  037%=      5-min Rain = 0
KMD1 111836Z 19005KT 34/18 A301 RMK A01 T03360175  RH  038%=      5-min Rain = 0
KMD1 111837Z 16006KT 34/17 A301 RMK A01 T03390173  RH  037%=      5-min Rain = 0
KMD1 111838Z 16008KT 34/17 A3009 RMK A01 T03390168  RH  036%=      5-min Rain = 0
KMD1 111839Z 18011KT 34/17 A3009 RMK A01 T03390169  RH  036%=      5-min Rain = 0
KMD1 111840Z 17010KT 34/17 A3009 RMK A01 T03370171  RH  037%=      5-min Rain = 0
KMD1 111841Z 16009KT 34/17 A3009 RMK A01 T03380168  RH  036%=      5-min Rain = 0
KMD1 111842Z 17009KT 34/17 A3009 RMK A01 T03390169  RH  036%=      5-min Rain = 0
KMD1 111843Z 16007KT 34/17 A3009 RMK A01 T03400171  RH  037%=      5-min Rain = 0
KMD1 111844Z 15007KT 34/17 A3009 RMK A01 T03410170  RH  036%=      5-min Rain = 0
KMD1 111845Z 13011KT 34/16 A3009 RMK A01 T03410164  RH  035%=      5-min Rain = 0
KMD1 111846Z 13009KT 34/16 A3009 RMK A01 T03410164  RH  035%=      5-min Rain = 0
KMD1 111847Z 14006KT 34/16 A3009 RMK A01 T03380160  RH  034%=      5-min Rain = 0
KMD1 111848Z 15004KT 33/16 A3009 RMK A01 T03320162  RH  036%=      5-min Rain = 0
KMD1 111849Z 09007KT 33/16 A3009 RMK A01 T03340162  RH  036%=      5-min Rain = 0
KMD1 111850Z 12004KT 34/16 A3009 RMK A01 T03350162  RH  036%=      5-min Rain = 0
KMD1 111851Z 10009G14KT 34/17 A3009 RMK A01 T03360166  RH  036%=      5-min Rain = 0
KMD1 111852Z 11012KT 34/17 A3009 RMK A01 T03420168  RH  036%=      5-min Rain = 0
KMD1 111853Z 11009KT 34/17 A3009 RMK A01 T03400169  RH  036%=      5-min Rain = 0
KMD1 111854Z 12009KT 34/17 A3009 RMK A01 T03360168  RH  037%=      5-min Rain = 0
KMD1 111855Z 12009KT 33/17 A3009 RMK A01 T03330166  RH  037%=      5-min Rain = 0
KMD1 111856Z 13011KT 33/16 A3009 RMK A01 T03300164  RH  037%=      5-min Rain = 0
KMD1 111857Z 14007KT 33/16 A3009 RMK A01 T03330164  RH  036%=      5-min Rain = 0
KMD1 111858Z 14007KT 34/17 A3008 RMK A01 T03370166  RH  036%=      5-min Rain = 0
KMD1 111859Z 14006KT 34/17 A3008 RMK A01 T03400167  RH  036%=      5-min Rain = 0
KMD1 111900Z 11007KT 34/17 A3008 RMK A01 T03430168  RH  035%=      5-min Rain = 0
KMD1 111901Z 12009KT 34/17 A3008 RMK A01 T03440167  RH  035%=      5-min Rain = 0
KMD1 111902Z 11013KT 35/17 A3008 RMK A01 T03450166  RH  035%=      5-min Rain = 0
KMD1 111903Z 11010KT 34/17 A3008 RMK A01 T03430166  RH  035%=      5-min Rain = 0
KMD1 111904Z 18008KT 34/17 A3009 RMK A01 T03440170  RH  036%=      5-min Rain = 0
KMD1 111905Z 19010KT 35/17 A3008 RMK A01 T03470167  RH  034%=      5-min Rain = 0
KMD1 111906Z 17005KT 34/17 A3008 RMK A01 T03430170  RH  036%=      5-min Rain = 0
KMD1 111907Z 15005KT 34/17 A3008 RMK A01 T03410169  RH  036%=      5-min Rain = 0
KMD1 111908Z 17007G15KT 34/17 A3008 RMK A01 T03420170  RH  036%=      5-min Rain = 0
KMD1 111909Z 17010KT 35/17 A3008 RMK A01 T03450171  RH  036%=      5-min Rain = 0
KMD1 111910Z 18007KT 34/17 A3008 RMK A01 T03420167  RH  035%=      5-min Rain = 0
KMD1 111911Z 20008KT 34/17 A3008 RMK A01 T03370169  RH  037%=      5-min Rain = 0
KMD1 111912Z 22007KT 34/17 A3008 RMK A01 T03390169  RH  036%=      5-min Rain = 0
KMD1 111913Z 23008KT 34/17 A3008 RMK A01 T03410167  RH  035%=      5-min Rain = 0
KMD1 111914Z 22006KT 34/17 A3008 RMK A01 T03410169  RH  036%=      5-min Rain = 0
KMD1 111915Z 25009KT 34/17 A3008 RMK A01 T03410168  RH  036%=      5-min Rain = 0
KMD1 111916Z 20008G13KT 34/17 A3008 RMK A01 T03410169  RH  036%=      5-min Rain = 0
KMD1 111917Z 18011KT 34/17 A3008 RMK A01 T03440171  RH  036%=      5-min Rain = 0
KMD1 111918Z 19011KT 35/17 A3007 RMK A01 T03450169  RH  035%=      5-min Rain = 0
KMD1 111919Z 20009KT 34/17 A3008 RMK A01 T03440171  RH  036%=      5-min Rain = 0
KMD1 111920Z 20008KT 34/17 A3008 RMK A01 T03440172  RH  036%=      5-min Rain = 0
KMD1 111921Z 19010KT 34/17 A3007 RMK A01 T03440170  RH  036%=      5-min Rain = 0
KMD1 111922Z 21009KT 34/16 A3007 RMK A01 T03400163  RH  035%=      5-min Rain = 0
KMD1 111923Z 22005KT 34/16 A3007 RMK A01 T03350162  RH  036%=      5-min Rain = 0
KMD1 111924Z 20003KT 33/16 A3007 RMK A01 T03320162  RH  036%=      5-min Rain = 0
KMD1 111925Z 14009KT 34/16 A3007 RMK A01 T03350164  RH  036%=      5-min Rain = 0
KMD1 111926Z 14010KT 34/16 A3007 RMK A01 T03400159  RH  034%=      5-min Rain = 0
KMD1 111927Z 12010KT 34/16 A3007 RMK A01 T03440162  RH  034%=      5-min Rain = 0
KMD1 111928Z 11009KT 35/16 A3007 RMK A01 T03480157  RH  032%=      5-min Rain = 0
KMD1 111929Z 12010KT 34/16 A3007 RMK A01 T03440157  RH  033%=      5-min Rain = 0
KMD1 111930Z 12007KT 34/16 A3007 RMK A01 T03430158  RH  033%=      5-min Rain = 0
KMD1 111931Z 11006KT 34/16 A3007 RMK A01 T03420161  RH  034%=      5-min Rain = 0
KMD1 111932Z 09007KT 34/16 A3007 RMK A01 T03430161  RH  034%=      5-min Rain = 0
KMD1 111933Z 08007KT 34/16 A3007 RMK A01 T03430160  RH  034%=      5-min Rain = 0
KMD1 111934Z 11012KT 34/16 A3007 RMK A01 T03420162  RH  034%=      5-min Rain = 0
KMD1 111935Z 12009KT 34/16 A3007 RMK A01 T03420160  RH  034%=      5-min Rain = 0
KMD1 111936Z 09006KT 34/16 A3007 RMK A01 T03370159  RH  034%=      5-min Rain = 0
KMD1 111937Z 10004KT 33/16 A3007 RMK A01 T03340159  RH  035%=      5-min Rain = 0
KMD1 111938Z 11006KT 33/16 A3007 RMK A01 T03320158  RH  035%=      5-min Rain = 0
KMD1 111939Z 11007KT 33/16 A3007 RMK A01 T03320156  RH  035%=      5-min Rain = 0
KMD1 111940Z 11007KT 33/16 A3007 RMK A01 T03310157  RH  035%=      5-min Rain = 0
KMD1 111941Z 12010KT 33/16 A3007 RMK A01 T03310157  RH  035%=      5-min Rain = 0
KMD1 111942Z 12008KT 33/16 A3007 RMK A01 T03320157  RH  035%=      5-min Rain = 0
KMD1 111943Z 11010KT 33/16 A3007 RMK A01 T03320159  RH  035%=      5-min Rain = 0
KMD1 111944Z 13011KT 33/16 A3006 RMK A01 T03330159  RH  035%=      5-min Rain = 0
KMD1 111945Z 12011KT 34/16 A3006 RMK A01 T03370161  RH  035%=      5-min Rain = 0
KMD1 111946Z 12010KT 34/16 A3006 RMK A01 T03420160  RH  034%=      5-min Rain = 0
KMD1 111947Z 12010KT 34/16 A3006 RMK A01 T03440160  RH  034%=      5-min Rain = 0
KMD1 111948Z 17004KT 34/16 A3006 RMK A01 T03430158  RH  033%=      5-min Rain = 0
KMD1 111949Z 14006KT 34/16 A3006 RMK A01 T03420159  RH  034%=      5-min Rain = 0
KMD1 111950Z 14004KT 34/17 A3006 RMK A01 T03410166  RH  035%=      5-min Rain = 0
KMD1 111951Z 11007KT 35/16 A3006 RMK A01 T03450163  RH  034%=      5-min Rain = 0
KMD1 111952Z 13006G11KT 35/17 A3006 RMK A01 T03500165  RH  033%=      5-min Rain = 0
KMD1 111953Z 16005KT 35/16 A3006 RMK A01 T03500162  RH  033%=      5-min Rain = 0
KMD1 111954Z 21007KT 35/16 A3006 RMK A01 T03480159  RH  033%=      5-min Rain = 0
KMD1 111955Z 19005KT 35/16 A3006 RMK A01 T03470160  RH  033%=      5-min Rain = 0
KMD1 111956Z 15005KT 35/16 A3006 RMK A01 T03490158  RH  032%=      5-min Rain = 0
KMD1 111957Z 10006KT 35/16 A3006 RMK A01 T03490164  RH  033%=      5-min Rain = 0
KMD1 111958Z 13010KT 35/16 A3006 RMK A01 T03500164  RH  033%=      5-min Rain = 0
KMD1 111959Z 13009KT 35/16 A3006 RMK A01 T03540164  RH  033%=      5-min Rain = 0
KMD1 112000Z 12009KT 35/17 A3006 RMK A01 T03540165  RH  033%=      5-min Rain = 0
KMD1 112001Z 12007KT 35/16 A3006 RMK A01 T03490164  RH  033%=      5-min Rain = 0
KMD1 112002Z 09007KT 35/17 A3005 RMK A01 T03460167  RH  035%=      5-min Rain = 0
KMD1 112003Z 08006KT 35/17 A3005 RMK A01 T03460165  RH  034%=      5-min Rain = 0
KMD1 112004Z 09006KT 34/17 A3005 RMK A01 T03430165  RH  035%=      5-min Rain = 0
KMD1 112005Z 13004KT 34/17 A3005 RMK A01 T03420166  RH  035%=      5-min Rain = 0
KMD1 112006Z 13004KT 35/17 A3005 RMK A01 T03450169  RH  035%=      5-min Rain = 0
KMD1 112007Z 12007KT 35/17 A3005 RMK A01 T03490168  RH  034%=      5-min Rain = 0
KMD1 112008Z 11005KT 35/17 A3005 RMK A01 T03510167  RH  034%=      5-min Rain = 0
KMD1 112009Z 17004KT 35/17 A3005 RMK A01 T03510165  RH  033%=      5-min Rain = 0
KMD1 112010Z 13005KT 35/17 A3005 RMK A01 T03520168  RH  034%=      5-min Rain = 0
KMD1 112011Z 12009KT 35/17 A3005 RMK A01 T03540171  RH  034%=      5-min Rain = 0
KMD1 112012Z 12010KT 36/17 A3005 RMK A01 T03560169  RH  033%=      5-min Rain = 0
KMD1 112013Z 14013KT 36/17 A3005 RMK A01 T03550170  RH  033%=      5-min Rain = 0
KMD1 112014Z 13012KT 35/17 A3005 RMK A01 T03540168  RH  033%=      5-min Rain = 0
KMD1 112015Z 13012KT 35/17 A3005 RMK A01 T03530168  RH  033%=      5-min Rain = 0
KMD1 112016Z 13012KT 35/17 A3005 RMK A01 T03530168  RH  033%=      5-min Rain = 0
KMD1 112017Z 12008KT 35/17 A3005 RMK A01 T03520167  RH  033%=      5-min Rain = 0
KMD1 112018Z 12011G17KT 35/17 A3005 RMK A01 T03500167  RH  034%=      5-min Rain = 0
KMD1 112019Z 14012KT 35/17 A3005 RMK A01 T03480165  RH  034%=      5-min Rain = 0
KMD1 112020Z 13011KT 34/16 A3005 RMK A01 T03440162  RH  034%=      5-min Rain = 0
KMD1 112021Z 13007KT 34/16 A3005 RMK A01 T03410160  RH  034%=      5-min Rain = 0
KMD1 112022Z 11004KT 34/16 A3005 RMK A01 T03390160  RH  034%=      5-min Rain = 0
KMD1 112023Z 10002KT 34/16 A3005 RMK A01 T03380161  RH  035%=      5-min Rain = 0
KMD1 112024Z 09003KT 34/16 A3005 RMK A01 T03380162  RH  035%=      5-min Rain = 0
KMD1 112025Z 13005KT 34/16 A3005 RMK A01 T03390164  RH  035%=      5-min Rain = 0
KMD1 112026Z 14008KT 34/17 A3005 RMK A01 T03410165  RH  035%=      5-min Rain = 0
KMD1 112027Z 15009KT 34/16 A3005 RMK A01 T03440163  RH  034%=      5-min Rain = 0
KMD1 112028Z 15009KT 34/16 A3005 RMK A01 T03440162  RH  034%=      5-min Rain = 0
KMD1 112029Z 19006KT 34/16 A3005 RMK A01 T03410160  RH  034%=      5-min Rain = 0
KMD1 112030Z 18007KT 34/16 A3004 RMK A01 T03390157  RH  034%=      5-min Rain = 0
KMD1 112031Z 15005KT 34/16 A3004 RMK A01 T03370161  RH  035%=      5-min Rain = 0
KMD1 112032Z 16006KT 34/16 A3004 RMK A01 T03370163  RH  035%=      5-min Rain = 0
KMD1 112033Z 14006KT 34/16 A3004 RMK A01 T03400164  RH  035%=      5-min Rain = 0
KMD1 112034Z 15006KT 34/17 A3004 RMK A01 T03440166  RH  035%=      5-min Rain = 0
KMD1 112035Z 14009KT 35/17 A3004 RMK A01 T03490172  RH  035%=      5-min Rain = 0
KMD1 112036Z 13011KT 36/17 A3004 RMK A01 T03560169  RH  033%=      5-min Rain = 0
KMD1 112037Z 12012KT 36/17 A3004 RMK A01 T03590166  RH  032%=      5-min Rain = 0
KMD1 112038Z 12012KT 36/17 A3004 RMK A01 T03580166  RH  032%=      5-min Rain = 0
KMD1 112039Z 12014KT 36/17 A3004 RMK A01 T03580167  RH  032%=      5-min Rain = 0
KMD1 112040Z 13014KT 36/17 A3004 RMK A01 T03590165  RH  032%=      5-min Rain = 0
KMD1 112041Z 14009KT 36/16 A3004 RMK A01 T03550164  RH  032%=      5-min Rain = 0
KMD1 112042Z 10007KT 35/16 A3004 RMK A01 T03540162  RH  032%=      5-min Rain = 0
KMD1 112043Z 11009KT 35/16 A3004 RMK A01 T03520164  RH  033%=      5-min Rain = 0
KMD1 112044Z 11007KT 36/16 A3004 RMK A01 T03560163  RH  032%=      5-min Rain = 0
KMD1 112045Z 13009KT 36/17 A3004 RMK A01 T03570165  RH  032%=      5-min Rain = 0
KMD1 112046Z 16010KT 36/17 A3004 RMK A01 T03560168  RH  033%=      5-min Rain = 0
KMD1 112047Z 14009KT 36/17 A3004 RMK A01 T03570169  RH  033%=      5-min Rain = 0
KMD1 112048Z 13010KT 36/17 A3004 RMK A01 T03590167  RH  032%=      5-min Rain = 0
KMD1 112049Z 13011KT 36/17 A3004 RMK A01 T03590165  RH  032%=      5-min Rain = 0
KMD1 112050Z 14009KT 36/16 A3004 RMK A01 T03570164  RH  032%=      5-min Rain = 0
KMD1 112051Z 13011KT 36/16 A3004 RMK A01 T03550164  RH  032%=      5-min Rain = 0
KMD1 112052Z 12012KT 36/16 A3004 RMK A01 T03550163  RH  032%=      5-min Rain = 0
KMD1 112053Z 11009KT 35/16 A3004 RMK A01 T03540163  RH  032%=      5-min Rain = 0
KMD1 112054Z 12009KT 35/16 A3004 RMK A01 T03510162  RH  032%=      5-min Rain = 0
KMD1 112055Z 12007KT 35/16 A3004 RMK A01 T03470160  RH  033%=      5-min Rain = 0
KMD1 112056Z 14008KT 35/16 A3004 RMK A01 T03450162  RH  034%=      5-min Rain = 0
KMD1 112057Z 13006KT 34/16 A3004 RMK A01 T03440159  RH  033%=      5-min Rain = 0
KMD1 112058Z 10006KT 34/16 A3004 RMK A01 T03420160  RH  034%=      5-min Rain = 0
KMD1 112059Z 11007KT 34/16 A3004 RMK A01 T03420161  RH  034%=      5-min Rain = 0
KMD1 112100Z 14008KT 34/16 A3003 RMK A01 T03410162  RH  034%=      5-min Rain = 0
KMD1 112101Z 14011KT 34/16 A3003 RMK A01 T03420163  RH  034%=      5-min Rain = 0
KMD1 112102Z 13010KT 34/16 A3003 RMK A01 T03420162  RH  034%=      5-min Rain = 0
KMD1 112103Z 14009KT 34/16 A3003 RMK A01 T03430162  RH  034%=      5-min Rain = 0
KMD1 112104Z 14011KT 35/16 A3003 RMK A01 T03450162  RH  034%=      5-min Rain = 0
KMD1 112105Z 16011KT 34/16 A3003 RMK A01 T03430162  RH  034%=      5-min Rain = 0
KMD1 112106Z 15011KT 34/16 A3003 RMK A01 T03410160  RH  034%=      5-min Rain = 0
KMD1 112107Z 16007KT 34/16 A3003 RMK A01 T03390159  RH  034%=      5-min Rain = 0
KMD1 112108Z 17003KT 34/16 A3003 RMK A01 T03390159  RH  034%=      5-min Rain = 0
KMD1 112109Z 13003KT 34/16 A3003 RMK A01 T03420161  RH  034%=      5-min Rain = 0
KMD1 112110Z 08005KT 35/16 A3003 RMK A01 T03460161  RH  033%=      5-min Rain = 0
KMD1 112111Z 12005KT 35/16 A3003 RMK A01 T03470159  RH  033%=      5-min Rain = 0
KMD1 112112Z 14007KT 35/16 A3003 RMK A01 T03450160  RH  033%=      5-min Rain = 0
KMD1 112113Z 12003KT 35/16 A3003 RMK A01 T03450158  RH  033%=      5-min Rain = 0
KMD1 112114Z 14001KT 35/16 A3003 RMK A01 T03460157  RH  032%=      5-min Rain = 0
KMD1 112115Z 11002KT 35/16 A3003 RMK A01 T03470158  RH  032%=      5-min Rain = 0
KMD1 112116Z 08001KT 35/16 A3003 RMK A01 T03470158  RH  032%=      5-min Rain = 0
KMD1 112117Z 16003KT 35/16 A3003 RMK A01 T03490162  RH  033%=      5-min Rain = 0
KMD1 112118Z 15007KT 35/17 A3002 RMK A01 T03520165  RH  033%=      5-min Rain = 0
KMD1 112119Z 16007KT 35/16 A3002 RMK A01 T03530160  RH  032%=      5-min Rain = 0
KMD1 112120Z 16009KT 35/16 A3002 RMK A01 T03510163  RH  033%=      5-min Rain = 0
KMD1 112121Z 18009KT 35/16 A3002 RMK A01 T03510161  RH  032%=      5-min Rain = 0
KMD1 112122Z 17011KT 35/16 A3002 RMK A01 T03480160  RH  033%=      5-min Rain = 0
KMD1 112123Z 16010KT 35/16 A3002 RMK A01 T03450160  RH  033%=      5-min Rain = 0
KMD1 112124Z 16009G14KT 34/16 A3002 RMK A01 T03420158  RH  033%=      5-min Rain = 0
KMD1 112125Z 15008KT 34/16 A3002 RMK A01 T03390157  RH  034%=      5-min Rain = 0
KMD1 112126Z 15004KT 34/16 A3002 RMK A01 T03380157  RH  034%=      5-min Rain = 0
KMD1 112127Z 15006KT 34/16 A3002 RMK A01 T03370159  RH  034%=      5-min Rain = 0
KMD1 112128Z 14006KT 34/16 A3002 RMK A01 T03380161  RH  035%=      5-min Rain = 0
KMD1 112129Z 14008KT 34/16 A3002 RMK A01 T03400158  RH  034%=      5-min Rain = 0
KMD1 112130Z 14009KT 34/16 A3002 RMK A01 T03410158  RH  034%=      5-min Rain = 0
KMD1 112131Z 12007KT 34/16 A3002 RMK A01 T03410159  RH  034%=      5-min Rain = 0
KMD1 112132Z 13007KT 34/16 A3002 RMK A01 T03400159  RH  034%=      5-min Rain = 0
KMD1 112133Z 13004KT 34/16 A3002 RMK A01 T03400159  RH  034%=      5-min Rain = 0
KMD1 112134Z 09004KT 34/16 A3002 RMK A01 T03430160  RH  034%=      5-min Rain = 0
KMD1 112135Z 14005KT 35/16 A3002 RMK A01 T03470162  RH  033%=      5-min Rain = 0
KMD1 112136Z 14004KT 35/16 A3001 RMK A01 T03500163  RH  033%=      5-min Rain = 0
KMD1 112137Z 11007KT 35/17 A3001 RMK A01 T03530165  RH  033%=      5-min Rain = 0
KMD1 112138Z 14006G12KT 36/16 A3001 RMK A01 T03580163  RH  031%=      5-min Rain = 0
KMD1 112139Z 14012KT 36/17 A3001 RMK A01 T03610167  RH  032%=      5-min Rain = 0
KMD1 112140Z 13008KT 36/16 A3001 RMK A01 T03640162  RH  030%=      5-min Rain = 0
KMD1 112141Z 13008KT 36/16 A3001 RMK A01 T03630163  RH  031%=      5-min Rain = 0
KMD1 112142Z 14010KT 36/17 A3001 RMK A01 T03620165  RH  031%=      5-min Rain = 0
KMD1 112143Z 15014KT 36/16 A3001 RMK A01 T03620162  RH  031%=      5-min Rain = 0
KMD1 112144Z 14011KT 36/16 A3001 RMK A01 T03580162  RH  031%=      5-min Rain = 0
KMD1 112145Z 13010KT 36/16 A3001 RMK A01 T03550161  RH  032%=      5-min Rain = 0
KMD1 112146Z 12008KT 35/16 A3001 RMK A01 T03520159  RH  032%=      5-min Rain = 0
KMD1 112147Z 12007KT 35/16 A3001 RMK A01 T03490157  RH  032%=      5-min Rain = 0
KMD1 112148Z 12009KT 35/16 A3001 RMK A01 T03470158  RH  032%=      5-min Rain = 0
KMD1 112149Z 14007KT 35/16 A3001 RMK A01 T03460159  RH  033%=      5-min Rain = 0
KMD1 112150Z 14008KT 35/16 A3001 RMK A01 T03450159  RH  033%=      5-min Rain = 0
KMD1 112151Z 14008KT 34/16 A3001 RMK A01 T03430160  RH  033%=      5-min Rain = 0
KMD1 112152Z 13008KT 34/16 A3001 RMK A01 T03420160  RH  034%=      5-min Rain = 0
KMD1 112153Z 13009KT 34/16 A3001 RMK A01 T03410159  RH  034%=      5-min Rain = 0
KMD1 112154Z 12010KT 34/16 A3001 RMK A01 T03410158  RH  033%=      5-min Rain = 0
KMD1 112155Z 12011KT 34/16 A3001 RMK A01 T03410157  RH  033%=      5-min Rain = 0
KMD1 112156Z 12010KT 34/16 A3001 RMK A01 T03400156  RH  033%=      5-min Rain = 0
KMD1 112157Z 13009KT 34/16 A3001 RMK A01 T03400157  RH  033%=      5-min Rain = 0
KMD1 112158Z 13010KT 34/16 A3001 RMK A01 T03400156  RH  033%=      5-min Rain = 0
KMD1 112159Z 13007KT 34/16 A3001 RMK A01 T03400155  RH  033%=      5-min Rain = 0
KMD1 112200Z 13007KT 34/16 A3001 RMK A01 T03400159  RH  034%=      5-min Rain = 0
KMD1 112201Z 11007KT 34/16 A3001 RMK A01 T03400158  RH  034%=      5-min Rain = 0
KMD1 112202Z 10006KT 34/16 A3001 RMK A01 T03410158  RH  033%=      5-min Rain = 0
KMD1 112203Z 10006KT 34/16 A3001 RMK A01 T03430159  RH  033%=      5-min Rain = 0
KMD1 112204Z 10007KT 35/16 A30 RMK A01 T03450161  RH  033%=      5-min Rain = 0
KMD1 112205Z 11008KT 35/16 A30 RMK A01 T03480161  RH  033%=      5-min Rain = 0
KMD1 112206Z 12010KT 35/16 A30 RMK A01 T03510163  RH  033%=      5-min Rain = 0
KMD1 112207Z 12012KT 36/16 A30 RMK A01 T03550162  RH  032%=      5-min Rain = 0
KMD1 112208Z 12012KT 36/16 A30 RMK A01 T03550161  RH  032%=      5-min Rain = 0
KMD1 112209Z 12012KT 36/16 A30 RMK A01 T03550162  RH  032%=      5-min Rain = 0
KMD1 112210Z 12010KT 36/16 A30 RMK A01 T03560161  RH  031%=      5-min Rain = 0
KMD1 112211Z 13011KT 36/16 A30 RMK A01 T03580163  RH  031%=      5-min Rain = 0
KMD1 112212Z 14012KT 36/16 A30 RMK A01 T03600164  RH  031%=      5-min Rain = 0
KMD1 112213Z 13012KT 36/16 A30 RMK A01 T03600160  RH  031%=      5-min Rain = 0
KMD1 112214Z 14007KT 36/16 A30 RMK A01 T03570164  RH  032%=      5-min Rain = 0
KMD1 112215Z 12009G14KT 36/16 A30 RMK A01 T03590164  RH  032%=      5-min Rain = 0
KMD1 112216Z 11007KT 36/16 A30 RMK A01 T03600157  RH  030%=      5-min Rain = 0
KMD1 112217Z 12005KT 36/16 A30 RMK A01 T03550157  RH  031%=      5-min Rain = 0
KMD1 112218Z 13003KT 35/16 A30 RMK A01 T03520156  RH  031%=      5-min Rain = 0
KMD1 112219Z 15004KT 35/16 A30 RMK A01 T03490157  RH  032%=      5-min Rain = 0
KMD1 112220Z 15004KT 35/16 A30 RMK A01 T03480160  RH  033%=      5-min Rain = 0
KMD1 112221Z 11004KT 35/16 A30 RMK A01 T03490161  RH  033%=      5-min Rain = 0
KMD1 112222Z 13005KT 35/16 A30 RMK A01 T03510160  RH  032%=      5-min Rain = 0
KMD1 112223Z 12010KT 35/16 A30 RMK A01 T03510162  RH  033%=      5-min Rain = 0
KMD1 112224Z 14010KT 35/16 A30 RMK A01 T03510163  RH  033%=      5-min Rain = 0
KMD1 112225Z 15011KT 35/16 A30 RMK A01 T03520162  RH  032%=      5-min Rain = 0
KMD1 112226Z 14006KT 35/16 A30 RMK A01 T03510161  RH  032%=      5-min Rain = 0
KMD1 112227Z 13007KT 35/16 A30 RMK A01 T03510162  RH  033%=      5-min Rain = 0
KMD1 112228Z 12009KT 35/16 A30 RMK A01 T03540164  RH  032%=      5-min Rain = 0
KMD1 112229Z 12009KT 36/16 A30 RMK A01 T03550160  RH  031%=      5-min Rain = 0
KMD1 112230Z 10007KT 35/16 A30 RMK A01 T03530160  RH  032%=      5-min Rain = 0
KMD1 112231Z 11009KT 35/16 A30 RMK A01 T03510160  RH  032%=      5-min Rain = 0
KMD1 112232Z 11007KT 35/16 A30 RMK A01 T03500159  RH  032%=      5-min Rain = 0
KMD1 112233Z 12005KT 35/16 A30 RMK A01 T03470158  RH  032%=      5-min Rain = 0
KMD1 112234Z 15007KT 35/16 A30 RMK A01 T03460160  RH  033%=      5-min Rain = 0
KMD1 112235Z 15009KT 35/16 A30 RMK A01 T03450161  RH  033%=      5-min Rain = 0
KMD1 112236Z 14007KT 34/16 A30 RMK A01 T03420158  RH  033%=      5-min Rain = 0
KMD1 112237Z 15007KT 34/16 A2999 RMK A01 T03410158  RH  034%=      5-min Rain = 0
KMD1 112238Z 12008KT 34/16 A2999 RMK A01 T03410159  RH  034%=      5-min Rain = 0
KMD1 112239Z 12009KT 34/16 A2999 RMK A01 T03400158  RH  034%=      5-min Rain = 0
KMD1 112240Z 11008KT 34/16 A2999 RMK A01 T03410158  RH  033%=      5-min Rain = 0
KMD1 112241Z 11012KT 35/16 A2999 RMK A01 T03450158  RH  033%=      5-min Rain = 0
KMD1 112242Z 11010KT 35/16 A2999 RMK A01 T03490158  RH  032%=      5-min Rain = 0
KMD1 112243Z 13008KT 35/16 A2999 RMK A01 T03500159  RH  032%=      5-min Rain = 0
KMD1 112244Z 15006KT 35/16 A2999 RMK A01 T03500160  RH  032%=      5-min Rain = 0
KMD1 112245Z 16006KT 35/16 A2999 RMK A01 T03520162  RH  032%=      5-min Rain = 0
KMD1 112246Z 17007KT 35/16 A2999 RMK A01 T03530160  RH  032%=      5-min Rain = 0
KMD1 112247Z 17007KT 35/16 A2999 RMK A01 T03530162  RH  032%=      5-min Rain = 0
KMD1 112248Z 19008KT 35/16 A2999 RMK A01 T03530160  RH  032%=      5-min Rain = 0
KMD1 112249Z 19009KT 35/16 A2998 RMK A01 T03540160  RH  032%=      5-min Rain = 0
KMD1 112250Z 18007KT 35/16 A2998 RMK A01 T03540160  RH  032%=      5-min Rain = 0
KMD1 112251Z 13014G19KT 35/16 A2998 RMK A01 T03530163  RH  032%=      5-min Rain = 0
KMD1 112252Z 12014KT 36/16 A2998 RMK A01 T03550161  RH  032%=      5-min Rain = 0
KMD1 112253Z 14012KT 36/16 A2998 RMK A01 T03550160  RH  031%=      5-min Rain = 0
KMD1 112254Z 14011KT 36/16 A2998 RMK A01 T03550161  RH  032%=      5-min Rain = 0
KMD1 112255Z 11010KT 36/16 A2998 RMK A01 T03550160  RH  031%=      5-min Rain = 0
KMD1 112256Z 11009KT 36/16 A2998 RMK A01 T03550161  RH  032%=      5-min Rain = 0
KMD1 112257Z 11012KT 36/16 A2998 RMK A01 T03560159  RH  031%=      5-min Rain = 0
KMD1 112258Z 15013KT 36/16 A2998 RMK A01 T03560161  RH  032%=      5-min Rain = 0
KMD1 112259Z 15011KT 36/16 A2998 RMK A01 T03550163  RH  032%=      5-min Rain = 0
KMD1 112300Z 15012KT 36/16 A2998 RMK A01 T03550161  RH  031%=      5-min Rain = 0
KMD1 112301Z 14010KT 35/16 A2998 RMK A01 T03540160  RH  031%=      5-min Rain = 0
KMD1 112302Z 14010KT 35/16 A2998 RMK A01 T03540160  RH  032%=      5-min Rain = 0
KMD1 112303Z 13010KT 35/16 A2998 RMK A01 T03530160  RH  032%=      5-min Rain = 0
KMD1 112304Z 14007KT 35/16 A2998 RMK A01 T03530157  RH  031%=      5-min Rain = 0
KMD1 112305Z 15010KT 35/16 A2998 RMK A01 T03520162  RH  032%=      5-min Rain = 0
KMD1 112306Z 13013KT 35/16 A2998 RMK A01 T03540160  RH  032%=      5-min Rain = 0
KMD1 112307Z 13012KT 35/16 A2998 RMK A01 T03540158  RH  031%=      5-min Rain = 0
KMD1 112308Z 15010KT 35/16 A2998 RMK A01 T03530161  RH  032%=      5-min Rain = 0
KMD1 112309Z 16009KT 35/16 A2998 RMK A01 T03530162  RH  032%=      5-min Rain = 0
KMD1 112310Z 16010KT 35/16 A2998 RMK A01 T03530162  RH  032%=      5-min Rain = 0
KMD1 112311Z 15010KT 35/16 A2998 RMK A01 T03540162  RH  032%=      5-min Rain = 0
KMD1 112312Z 16012KT 36/16 A2998 RMK A01 T03550161  RH  032%=      5-min Rain = 0
KMD1 112313Z 16010KT 35/16 A2998 RMK A01 T03530160  RH  032%=      5-min Rain = 0
KMD1 112314Z 16008KT 35/16 A2998 RMK A01 T03520159  RH  032%=      5-min Rain = 0
KMD1 112315Z 16006KT 35/16 A2998 RMK A01 T03510159  RH  032%=      5-min Rain = 0
KMD1 112316Z 14007KT 35/16 A2998 RMK A01 T03510160  RH  032%=      5-min Rain = 0
KMD1 112317Z 12007KT 35/16 A2998 RMK A01 T03520159  RH  032%=      5-min Rain = 0
KMD1 112318Z 12007KT 35/16 A2998 RMK A01 T03540158  RH  031%=      5-min Rain = 0
KMD1 112319Z 13007KT 35/16 A2998 RMK A01 T03540158  RH  031%=      5-min Rain = 0
KMD1 112320Z 12006KT 35/16 A2998 RMK A01 T03540157  RH  031%=      5-min Rain = 0
KMD1 112321Z 14008G13KT 35/16 A2998 RMK A01 T03530159  RH  031%=      5-min Rain = 0
KMD1 112322Z 15012KT 35/16 A2998 RMK A01 T03530158  RH  031%=      5-min Rain = 0
KMD1 112323Z 13010KT 35/16 A2998 RMK A01 T03520156  RH  031%=      5-min Rain = 0
KMD1 112324Z 13010KT 35/16 A2998 RMK A01 T03510157  RH  031%=      5-min Rain = 0
KMD1 112325Z 14011KT 35/16 A2998 RMK A01 T03520157  RH  031%=      5-min Rain = 0
KMD1 112326Z 15010KT 35/16 A2998 RMK A01 T03540158  RH  031%=      5-min Rain = 0
KMD1 112327Z 16011KT 35/16 A2998 RMK A01 T03540158  RH  031%=      5-min Rain = 0
KMD1 112328Z 16010KT 35/16 A2998 RMK A01 T03530159  RH  032%=      5-min Rain = 0
KMD1 112329Z 15009KT 35/16 A2998 RMK A01 T03510158  RH  032%=      5-min Rain = 0
KMD1 112330Z 16010KT 35/16 A2998 RMK A01 T03510159  RH  032%=      5-min Rain = 0
KMD1 112331Z 16009KT 35/16 A2998 RMK A01 T03520157  RH  031%=      5-min Rain = 0
KMD1 112332Z 16007KT 35/16 A2998 RMK A01 T03510158  RH  032%=      5-min Rain = 0
KMD1 112333Z 16008KT 35/16 A2998 RMK A01 T03510159  RH  032%=      5-min Rain = 0
KMD1 112334Z 17006KT 35/16 A2998 RMK A01 T03510158  RH  032%=      5-min Rain = 0
KMD1 112335Z 14008KT 35/16 A2998 RMK A01 T03510160  RH  032%=      5-min Rain = 0
KMD1 112336Z 14009KT 35/16 A2998 RMK A01 T03520159  RH  032%=      5-min Rain = 0
KMD1 112337Z 14009KT 35/16 A2998 RMK A01 T03530156  RH  031%=      5-min Rain = 0
KMD1 112338Z 13007KT 35/16 A2998 RMK A01 T03530156  RH  031%=      5-min Rain = 0
KMD1 112339Z 12009KT 35/16 A2998 RMK A01 T03520155  RH  031%=      5-min Rain = 0
KMD1 112340Z 14007KT 35/15 A2998 RMK A01 T03510154  RH  031%=      5-min Rain = 0
KMD1 112341Z 14010KT 35/16 A2998 RMK A01 T03500155  RH  031%=      5-min Rain = 0
KMD1 112342Z 15007KT 35/15 A2998 RMK A01 T03500153  RH  031%=      5-min Rain = 0
KMD1 112343Z 16007KT 35/16 A2998 RMK A01 T03490156  RH  032%=      5-min Rain = 0
KMD1 112344Z 15006KT 35/16 A2998 RMK A01 T03490158  RH  032%=      5-min Rain = 0
KMD1 112345Z 15008KT 35/16 A2998 RMK A01 T03500157  RH  032%=      5-min Rain = 0
KMD1 112346Z 18009KT 35/16 A2998 RMK A01 T03520158  RH  032%=      5-min Rain = 0
KMD1 112347Z 16008KT 35/16 A2998 RMK A01 T03520158  RH  032%=      5-min Rain = 0
KMD1 112348Z 14008KT 35/16 A2998 RMK A01 T03510156  RH  031%=      5-min Rain = 0
KMD1 112349Z 14006KT 35/16 A2998 RMK A01 T03500156  RH  031%=      5-min Rain = 0
KMD1 112350Z 13006KT 35/16 A2998 RMK A01 T03500157  RH  032%=      5-min Rain = 0
KMD1 112351Z 13009KT 35/16 A2998 RMK A01 T03510156  RH  031%=      5-min Rain = 0
KMD1 112352Z 13011KT 35/16 A2998 RMK A01 T03520156  RH  031%=      5-min Rain = 0
KMD1 112353Z 13011KT 35/16 A2998 RMK A01 T03510155  RH  031%=      5-min Rain = 0
KMD1 112354Z 13009KT 35/16 A2997 RMK A01 T03510156  RH  031%=      5-min Rain = 0
KMD1 112355Z 13009KT 35/16 A2997 RMK A01 T03500156  RH  031%=      5-min Rain = 0
KMD1 112356Z 13009KT 35/16 A2997 RMK A01 T03500156  RH  031%=      5-min Rain = 0
KMD1 112357Z 13009KT 35/16 A2997 RMK A01 T03500157  RH  032%=      5-min Rain = 0
KMD1 112358Z 12010KT 35/16 A2997 RMK A01 T03500156  RH  031%=      5-min Rain = 0
KMD1 112359Z 13010KT 35/15 A2997 RMK A01 T03500154  RH  031%=      5-min Rain = 0
KMD1 120000Z 13010KT 35/16 A2997 RMK A01 T03490155  RH  031%=      5-min Rain = 0
KMD1 120001Z 14009KT 35/16 A2997 RMK A01 T03480156  RH  032%=      5-min Rain = 0
KMD1 120002Z 15009KT 35/16 A2997 RMK A01 T03480158  RH  032%=      5-min Rain = 0
KMD1 120003Z 15010KT 35/16 A2997 RMK A01 T03480156  RH  032%=      5-min Rain = 0
KMD1 120004Z 14008KT 35/16 A2997 RMK A01 T03480156  RH  032%=      5-min Rain = 0
KMD1 120005Z 14011KT 35/16 A2997 RMK A01 T03470155  RH  032%=      5-min Rain = 0
KMD1 120006Z 14010KT 35/15 A2997 RMK A01 T03470154  RH  032%=      5-min Rain = 0
KMD1 120007Z 15011KT 35/16 A2997 RMK A01 T03470156  RH  032%=      5-min Rain = 0
KMD1 120008Z 16010KT 35/16 A2997 RMK A01 T03460156  RH  032%=      5-min Rain = 0
KMD1 120009Z 15009KT 35/16 A2997 RMK A01 T03450155  RH  032%=      5-min Rain = 0
KMD1 120010Z 15009KT 35/15 A2998 RMK A01 T03450154  RH  032%=      5-min Rain = 0
KMD1 120011Z 14008KT 35/15 A2998 RMK A01 T03450154  RH  032%=      5-min Rain = 0
KMD1 120012Z 14007KT 35/15 A2998 RMK A01 T03450152  RH  031%=      5-min Rain = 0
KMD1 120013Z 13009KT 35/15 A2998 RMK A01 T03460152  RH  031%=      5-min Rain = 0
KMD1 120014Z 13008KT 35/15 A2998 RMK A01 T03450153  RH  032%=      5-min Rain = 0
KMD1 120015Z 14009KT 34/15 A2998 RMK A01 T03440152  RH  032%=      5-min Rain = 0
KMD1 120016Z 14008KT 35/15 A2998 RMK A01 T03450153  RH  032%=      5-min Rain = 0
KMD1 120017Z 14009KT 35/15 A2997 RMK A01 T03460153  RH  032%=      5-min Rain = 0
KMD1 120018Z 14006KT 35/15 A2998 RMK A01 T03450153  RH  032%=      5-min Rain = 0
KMD1 120019Z 13008KT 34/15 A2998 RMK A01 T03440154  RH  032%=      5-min Rain = 0
KMD1 120020Z 14009KT 34/15 A2998 RMK A01 T03430151  RH  032%=      5-min Rain = 0
KMD1 120021Z 14010KT 34/15 A2998 RMK A01 T03420151  RH  032%=      5-min Rain = 0
KMD1 120022Z 14008KT 34/15 A2998 RMK A01 T03430152  RH  032%=      5-min Rain = 0
KMD1 120023Z 16007KT 34/16 A2998 RMK A01 T03440155  RH  032%=      5-min Rain = 0
KMD1 120024Z 16009G14KT 34/16 A2998 RMK A01 T03440155  RH  032%=      5-min Rain = 0
KMD1 120025Z 15011KT 34/16 A2998 RMK A01 T03440155  RH  032%=      5-min Rain = 0
KMD1 120026Z 16011KT 34/16 A2998 RMK A01 T03430156  RH  033%=      5-min Rain = 0
KMD1 120027Z 16010KT 34/16 A2998 RMK A01 T03420156  RH  033%=      5-min Rain = 0
KMD1 120028Z 16009KT 34/16 A2998 RMK A01 T03410156  RH  033%=      5-min Rain = 0
KMD1 120029Z 15008KT 34/16 A2998 RMK A01 T03410157  RH  033%=      5-min Rain = 0
KMD1 120030Z 15009KT 34/16 A2998 RMK A01 T03410156  RH  033%=      5-min Rain = 0
KMD1 120031Z 15009KT 34/16 A2998 RMK A01 T03410157  RH  033%=      5-min Rain = 0
KMD1 120032Z 15009KT 34/16 A2998 RMK A01 T03390156  RH  033%=      5-min Rain = 0
KMD1 120033Z 16010KT 34/16 A2998 RMK A01 T03380155  RH  033%=      5-min Rain = 0
KMD1 120034Z 16011KT 34/16 A2998 RMK A01 T03370156  RH  034%=      5-min Rain = 0
KMD1 120035Z 16012KT 34/16 A2998 RMK A01 T03360155  RH  034%=      5-min Rain = 0
KMD1 120036Z 15012KT 34/16 A2998 RMK A01 T03360155  RH  034%=      5-min Rain = 0
KMD1 120037Z 14012KT 34/16 A2998 RMK A01 T03370156  RH  034%=      5-min Rain = 0
KMD1 120038Z 14011KT 34/16 A2998 RMK A01 T03370155  RH  034%=      5-min Rain = 0
KMD1 120039Z 14011KT 34/16 A2998 RMK A01 T03380156  RH  034%=      5-min Rain = 0
KMD1 120040Z 14011KT 34/16 A2998 RMK A01 T03380155  RH  033%=      5-min Rain = 0
KMD1 120041Z 15010KT 34/16 A2998 RMK A01 T03380155  RH  033%=      5-min Rain = 0
KMD1 120042Z 14009KT 34/16 A2998 RMK A01 T03380156  RH  034%=      5-min Rain = 0
KMD1 120043Z 15013KT 34/16 A2998 RMK A01 T03380156  RH  034%=      5-min Rain = 0
KMD1 120044Z 15010KT 34/16 A2998 RMK A01 T03370156  RH  034%=      5-min Rain = 0
KMD1 120045Z 15011KT 34/16 A2998 RMK A01 T03370158  RH  034%=      5-min Rain = 0
KMD1 120046Z 14010KT 34/16 A2998 RMK A01 T03370157  RH  034%=      5-min Rain = 0
KMD1 120047Z 14008KT 34/16 A2998 RMK A01 T03360156  RH  034%=      5-min Rain = 0
KMD1 120048Z 14007KT 34/16 A2998 RMK A01 T03360158  RH  034%=      5-min Rain = 0
KMD1 120049Z 14009KT 34/16 A2998 RMK A01 T03360157  RH  034%=      5-min Rain = 0
KMD1 120050Z 15007KT 34/16 A2998 RMK A01 T03360159  RH  035%=      5-min Rain = 0
KMD1 120051Z 15009KT 34/16 A2998 RMK A01 T03360160  RH  035%=      5-min Rain = 0
KMD1 120052Z 15009KT 34/16 A2998 RMK A01 T03360158  RH  034%=      5-min Rain = 0
KMD1 120053Z 15008KT 34/16 A2998 RMK A01 T03350159  RH  035%=      5-min Rain = 0
KMD1 120054Z 16009KT 34/16 A2998 RMK A01 T03350159  RH  035%=      5-min Rain = 0
KMD1 120055Z 14009KT 33/16 A2998 RMK A01 T03340158  RH  035%=      5-min Rain = 0
KMD1 120056Z 15011KT 34/16 A2999 RMK A01 T03350158  RH  035%=      5-min Rain = 0
KMD1 120057Z 15010KT 33/16 A2999 RMK A01 T03340159  RH  035%=      5-min Rain = 0
KMD1 120058Z 14011KT 33/16 A2999 RMK A01 T03340159  RH  035%=      5-min Rain = 0
KMD1 120059Z 13013KT 33/16 A2999 RMK A01 T03330159  RH  035%=      5-min Rain = 0
KMD1 120100Z 14010KT 33/16 A2999 RMK A01 T03330159  RH  035%=      5-min Rain = 0
KMD1 120101Z 13011KT 33/16 A2999 RMK A01 T03320159  RH  035%=      5-min Rain = 0
KMD1 120102Z 13010KT 33/16 A2999 RMK A01 T03320160  RH  036%=      5-min Rain = 0
KMD1 120103Z 13009KT 33/16 A2999 RMK A01 T03320159  RH  036%=      5-min Rain = 0
KMD1 120104Z 14010KT 33/16 A2999 RMK A01 T03310161  RH  036%=      5-min Rain = 0
KMD1 120105Z 14011KT 33/16 A2999 RMK A01 T03310159  RH  036%=      5-min Rain = 0
KMD1 120106Z 14009KT 33/16 A2999 RMK A01 T03310159  RH  036%=      5-min Rain = 0
KMD1 120107Z 14008KT 33/16 A2999 RMK A01 T03310160  RH  036%=      5-min Rain = 0
KMD1 120108Z 14009KT 33/16 A2999 RMK A01 T03300160  RH  036%=      5-min Rain = 0
KMD1 120109Z 14010KT 33/16 A2999 RMK A01 T03300159  RH  036%=      5-min Rain = 0
KMD1 120110Z 14009KT 33/16 A2999 RMK A01 T03300159  RH  036%=      5-min Rain = 0
KMD1 120111Z 14007KT 33/16 A2999 RMK A01 T03300160  RH  036%=      5-min Rain = 0
KMD1 120112Z 15009KT 33/16 A2999 RMK A01 T03290161  RH  036%=      5-min Rain = 0
KMD1 120113Z 15010KT 33/16 A2999 RMK A01 T03290160  RH  036%=      5-min Rain = 0
KMD1 120114Z 15009KT 33/16 A2999 RMK A01 T03280160  RH  037%=      5-min Rain = 0
KMD1 120115Z 15009KT 33/16 A2999 RMK A01 T03280160  RH  037%=      5-min Rain = 0
KMD1 120116Z 15009KT 33/16 A2999 RMK A01 T03270160  RH  037%=      5-min Rain = 0
KMD1 120117Z 14010KT 33/16 A2999 RMK A01 T03270160  RH  037%=      5-min Rain = 0
KMD1 120118Z 14008KT 33/16 A2999 RMK A01 T03260160  RH  037%=      5-min Rain = 0
KMD1 120119Z 14012KT 33/16 A2999 RMK A01 T03260161  RH  037%=      5-min Rain = 0
KMD1 120120Z 14012KT 33/16 A2999 RMK A01 T03260160  RH  037%=      5-min Rain = 0
KMD1 120121Z 14012KT 33/16 A30 RMK A01 T03260160  RH  037%=      5-min Rain = 0
KMD1 120122Z 13009KT 33/16 A30 RMK A01 T03260161  RH  037%=      5-min Rain = 0
KMD1 120123Z 15008KT 33/16 A30 RMK A01 T03250161  RH  037%=      5-min Rain = 0
KMD1 120124Z 14009KT 33/16 A30 RMK A01 T03250161  RH  037%=      5-min Rain = 0
KMD1 120125Z 14010KT 33/16 A30 RMK A01 T03250162  RH  038%=      5-min Rain = 0
KMD1 120126Z 16010KT 32/16 A30 RMK A01 T03240162  RH  038%=      5-min Rain = 0
KMD1 120127Z 15009KT 32/16 A30 RMK A01 T03240163  RH  038%=      5-min Rain = 0
KMD1 120128Z 15008KT 32/16 A30 RMK A01 T03230162  RH  038%=      5-min Rain = 0
KMD1 120129Z 16009KT 32/16 A30 RMK A01 T03230163  RH  038%=      5-min Rain = 0
KMD1 120130Z 15009KT 32/16 A30 RMK A01 T03220163  RH  038%=      5-min Rain = 0
KMD1 120131Z 15010KT 32/16 A30 RMK A01 T03220163  RH  038%=      5-min Rain = 0
KMD1 120132Z 15009KT 32/16 A30 RMK A01 T03220163  RH  039%=      5-min Rain = 0
KMD1 120133Z 15010KT 32/16 A30 RMK A01 T03210163  RH  039%=      5-min Rain = 0
KMD1 120134Z 15010KT 32/16 A30 RMK A01 T03210163  RH  039%=      5-min Rain = 0
KMD1 120135Z 15009KT 32/16 A30 RMK A01 T03210163  RH  039%=      5-min Rain = 0
KMD1 120136Z 14009KT 32/16 A30 RMK A01 T03210163  RH  039%=      5-min Rain = 0
KMD1 120137Z 14007KT 32/16 A30 RMK A01 T03200164  RH  039%=      5-min Rain = 0
KMD1 120138Z 14007KT 32/16 A30 RMK A01 T03190164  RH  039%=      5-min Rain = 0
KMD1 120139Z 15007KT 32/16 A30 RMK A01 T03180164  RH  040%=      5-min Rain = 0
KMD1 120140Z 14008KT 32/16 A30 RMK A01 T03180164  RH  040%=      5-min Rain = 0
KMD1 120141Z 15007KT 32/16 A30 RMK A01 T03170164  RH  040%=      5-min Rain = 0
KMD1 120142Z 15006KT 32/16 A30 RMK A01 T03160164  RH  040%=      5-min Rain = 0
KMD1 120143Z 15009KT 32/17 A30 RMK A01 T03160165  RH  040%=      5-min Rain = 0
KMD1 120144Z 15009KT 32/16 A30 RMK A01 T03150164  RH  040%=      5-min Rain = 0
KMD1 120145Z 16008KT 32/16 A30 RMK A01 T03160164  RH  040%=      5-min Rain = 0
KMD1 120146Z 14006KT 32/16 A30 RMK A01 T03150164  RH  040%=      5-min Rain = 0
KMD1 120147Z 14006KT 32/16 A30 RMK A01 T03150164  RH  040%=      5-min Rain = 0
KMD1 120148Z 14007KT 32/16 A30 RMK A01 T03150164  RH  040%=      5-min Rain = 0
KMD1 120149Z 14007KT 31/17 A30 RMK A01 T03140165  RH  041%=      5-min Rain = 0
KMD1 120150Z 15007KT 31/16 A30 RMK A01 T03140164  RH  041%=      5-min Rain = 0
KMD1 120151Z 15007KT 31/17 A30 RMK A01 T03130165  RH  041%=      5-min Rain = 0
KMD1 120152Z 15007KT 31/17 A3001 RMK A01 T03130165  RH  041%=      5-min Rain = 0
KMD1 120153Z 14008KT 31/17 A3001 RMK A01 T03120165  RH  041%=      5-min Rain = 0
KMD1 120154Z 15007KT 31/17 A3001 RMK A01 T03110165  RH  041%=      5-min Rain = 0
KMD1 120155Z 14008KT 31/17 A3001 RMK A01 T03110165  RH  041%=      5-min Rain = 0
KMD1 120156Z 15007KT 31/17 A30 RMK A01 T03110165  RH  041%=      5-min Rain = 0
KMD1 120157Z 15008KT 31/17 A30 RMK A01 T03110165  RH  041%=      5-min Rain = 0
KMD1 120158Z 15008KT 31/17 A30 RMK A01 T03120166  RH  041%=      5-min Rain = 0
KMD1 120159Z 15007KT 31/17 A30 RMK A01 T03110166  RH  042%=      5-min Rain = 0
KMD1 120200Z 16008KT 31/17 A3001 RMK A01 T03100166  RH  042%=      5-min Rain = 0
KMD1 120201Z 16007KT 31/17 A3001 RMK A01 T03100166  RH  042%=      5-min Rain = 0
KMD1 120202Z 16007KT 31/17 A3001 RMK A01 T03100165  RH  042%=      5-min Rain = 0
KMD1 120203Z 16007KT 31/17 A3001 RMK A01 T03090166  RH  042%=      5-min Rain = 0
KMD1 120204Z 16007KT 31/17 A3001 RMK A01 T03090166  RH  042%=      5-min Rain = 0
KMD1 120205Z 16007KT 31/17 A3001 RMK A01 T03080165  RH  042%=      5-min Rain = 0
KMD1 120206Z 17007KT 31/17 A3001 RMK A01 T03080166  RH  042%=      5-min Rain = 0
KMD1 120207Z 17006KT 31/17 A3001 RMK A01 T03080166  RH  042%=      5-min Rain = 0
KMD1 120208Z 16006KT 31/17 A3001 RMK A01 T03080166  RH  043%=      5-min Rain = 0
KMD1 120209Z 17007KT 31/17 A3001 RMK A01 T03070166  RH  043%=      5-min Rain = 0
KMD1 120210Z 16008KT 31/17 A3001 RMK A01 T03060165  RH  043%=      5-min Rain = 0
KMD1 120211Z 16007KT 31/17 A3001 RMK A01 T03060165  RH  043%=      5-min Rain = 0
KMD1 120212Z 16006KT 31/17 A3001 RMK A01 T03060165  RH  042%=      5-min Rain = 0
KMD1 120213Z 17006KT 31/17 A3001 RMK A01 T03060166  RH  043%=      5-min Rain = 0
KMD1 120214Z 16008KT 31/17 A3001 RMK A01 T03060166  RH  043%=      5-min Rain = 0
KMD1 120215Z 16007KT 31/17 A3001 RMK A01 T03050165  RH  043%=      5-min Rain = 0
KMD1 120216Z 16007KT 31/17 A3001 RMK A01 T03050165  RH  043%=      5-min Rain = 0
KMD1 120217Z 16007KT 31/17 A3001 RMK A01 T03050165  RH  043%=      5-min Rain = 0
KMD1 120218Z 16008KT 31/17 A3001 RMK A01 T03050165  RH  043%=      5-min Rain = 0
KMD1 120219Z 16008KT 31/17 A3001 RMK A01 T03050165  RH  043%=      5-min Rain = 0
KMD1 120220Z 16007KT 31/17 A3001 RMK A01 T03050165  RH  043%=      5-min Rain = 0
KMD1 120221Z 17009KT 31/17 A3001 RMK A01 T03050165  RH  043%=      5-min Rain = 0
KMD1 120222Z 17009KT 31/17 A3001 RMK A01 T03050165  RH  043%=      5-min Rain = 0
KMD1 120223Z 16007KT 30/17 A3001 RMK A01 T03040165  RH  043%=      5-min Rain = 0
KMD1 120224Z 16006KT 30/17 A3001 RMK A01 T03040165  RH  043%=      5-min Rain = 0
KMD1 120225Z 17007KT 30/17 A3001 RMK A01 T03030165  RH  043%=      5-min Rain = 0
KMD1 120226Z 16008KT 30/17 A3001 RMK A01 T03020165  RH  043%=      5-min Rain = 0
KMD1 120227Z 17007KT 30/17 A3002 RMK A01 T03020165  RH  044%=      5-min Rain = 0
KMD1 120228Z 16006KT 30/17 A3002 RMK A01 T03020165  RH  044%=      5-min Rain = 0
KMD1 120229Z 16006KT 30/17 A3002 RMK A01 T03010165  RH  044%=      5-min Rain = 0
KMD1 120230Z 15006KT 30/17 A3002 RMK A01 T03010165  RH  044%=      5-min Rain = 0
KMD1 120231Z 16007KT 30/16 A3002 RMK A01 T03000164  RH  044%=      5-min Rain = 0
KMD1 120232Z 15006KT 30/16 A3002 RMK A01 T03010164  RH  044%=      5-min Rain = 0
KMD1 120233Z 14007KT 30/17 A3002 RMK A01 T03010165  RH  044%=      5-min Rain = 0
KMD1 120234Z 15006KT 30/17 A3002 RMK A01 T03000165  RH  044%=      5-min Rain = 0
KMD1 120235Z 15007KT 30/16 A3002 RMK A01 T03000164  RH  044%=      5-min Rain = 0
KMD1 120236Z 15008KT 30/16 A3002 RMK A01 T03000164  RH  044%=      5-min Rain = 0
KMD1 120237Z 15007KT 30/16 A3002 RMK A01 T03000164  RH  044%=      5-min Rain = 0
KMD1 120238Z 16006KT 30/16 A3003 RMK A01 T03010164  RH  044%=      5-min Rain = 0
KMD1 120239Z 15006KT 30/17 A3003 RMK A01 T03000165  RH  044%=      5-min Rain = 0
KMD1 120240Z 16008KT 30/17 A3003 RMK A01 T02990165  RH  044%=      5-min Rain = 0
KMD1 120241Z 16007KT 30/16 A3003 RMK A01 T02980164  RH  044%=      5-min Rain = 0
KMD1 120242Z 15007KT 30/16 A3003 RMK A01 T02980164  RH  044%=      5-min Rain = 0
KMD1 120243Z 16006KT 30/16 A3003 RMK A01 T02980164  RH  044%=      5-min Rain = 0
KMD1 120244Z 15007KT 30/16 A3003 RMK A01 T02990164  RH  044%=      5-min Rain = 0
KMD1 120245Z 16007KT 30/17 A3003 RMK A01 T02990165  RH  044%=      5-min Rain = 0
KMD1 120246Z 16006KT 30/17 A3003 RMK A01 T02980165  RH  045%=      5-min Rain = 0
KMD1 120247Z 16006KT 30/17 A3003 RMK A01 T02970165  RH  045%=      5-min Rain = 0
KMD1 120248Z 15006KT 30/17 A3003 RMK A01 T02960165  RH  045%=      5-min Rain = 0
KMD1 120249Z 16007KT 30/16 A3003 RMK A01 T02960164  RH  045%=      5-min Rain = 0
KMD1 120250Z 16007KT 30/16 A3003 RMK A01 T02960164  RH  045%=      5-min Rain = 0
KMD1 120251Z 15007KT 30/16 A3003 RMK A01 T02960164  RH  045%=      5-min Rain = 0
KMD1 120252Z 16006KT 30/16 A3004 RMK A01 T02960164  RH  045%=      5-min Rain = 0
KMD1 120253Z 14006KT 30/17 A3004 RMK A01 T02960165  RH  045%=      5-min Rain = 0
KMD1 120254Z 15006KT 30/17 A3004 RMK A01 T02960165  RH  045%=      5-min Rain = 0
KMD1 120255Z 15006KT 30/16 A3004 RMK A01 T02950164  RH  045%=      5-min Rain = 0
KMD1 120256Z 15006KT 30/17 A3004 RMK A01 T02950165  RH  045%=      5-min Rain = 0
KMD1 120257Z 15007KT 30/16 A3004 RMK A01 T02950164  RH  045%=      5-min Rain = 0
KMD1 120258Z 16006KT 30/16 A3004 RMK A01 T02950164  RH  045%=      5-min Rain = 0
KMD1 120259Z 15006KT 30/16 A3004 RMK A01 T02950164  RH  045%=      5-min Rain = 0
KMD1 120300Z 15006KT 30/17 A3004 RMK A01 T02950165  RH  046%=      5-min Rain = 0
KMD1 120301Z 16006KT 29/17 A3004 RMK A01 T02940165  RH  046%=      5-min Rain = 0
KMD1 120302Z 15006KT 29/17 A3004 RMK A01 T02930165  RH  046%=      5-min Rain = 0
KMD1 120303Z 15006KT 29/17 A3004 RMK A01 T02930165  RH  046%=      5-min Rain = 0
KMD1 120304Z 15006KT 29/17 A3004 RMK A01 T02920165  RH  046%=      5-min Rain = 0
KMD1 120305Z 15005KT 29/17 A3004 RMK A01 T02920165  RH  046%=      5-min Rain = 0
KMD1 120306Z 15005KT 29/17 A3004 RMK A01 T02920165  RH  046%=      5-min Rain = 0
KMD1 120307Z 15005KT 29/17 A3004 RMK A01 T02910165  RH  047%=      5-min Rain = 0
KMD1 120308Z 15005KT 29/17 A3004 RMK A01 T02900165  RH  047%=      5-min Rain = 0
KMD1 120309Z 16005KT 29/17 A3004 RMK A01 T02890165  RH  047%=      5-min Rain = 0
KMD1 120310Z 15005KT 29/17 A3004 RMK A01 T02890165  RH  047%=      5-min Rain = 0
KMD1 120311Z 16005KT 29/17 A3004 RMK A01 T02890165  RH  047%=      5-min Rain = 0
KMD1 120312Z 15004KT 29/17 A3004 RMK A01 T02890165  RH  047%=      5-min Rain = 0
KMD1 120313Z 15005KT 29/17 A3005 RMK A01 T02880165  RH  047%=      5-min Rain = 0
KMD1 120314Z 15005KT 29/17 A3005 RMK A01 T02880165  RH  047%=      5-min Rain = 0
KMD1 120315Z 15006KT 29/17 A3005 RMK A01 T02880165  RH  047%=      5-min Rain = 0
KMD1 120316Z 15005KT 29/17 A3005 RMK A01 T02880165  RH  047%=      5-min Rain = 0
KMD1 120317Z 15006KT 29/17 A3005 RMK A01 T02880165  RH  047%=      5-min Rain = 0
KMD1 120318Z 15006KT 29/17 A3005 RMK A01 T02880165  RH  047%=      5-min Rain = 0
KMD1 120319Z 14006KT 29/17 A3005 RMK A01 T02880165  RH  047%=      5-min Rain = 0
KMD1 120320Z 15005KT 29/16 A3005 RMK A01 T02880164  RH  047%=      5-min Rain = 0
KMD1 120321Z 14005KT 29/17 A3005 RMK A01 T02880165  RH  048%=      5-min Rain = 0
KMD1 120322Z 14005KT 29/17 A3005 RMK A01 T02870165  RH  048%=      5-min Rain = 0
KMD1 120323Z 14005KT 29/17 A3005 RMK A01 T02860165  RH  048%=      5-min Rain = 0
KMD1 120324Z 14005KT 29/17 A3005 RMK A01 T02850166  RH  048%=      5-min Rain = 0
KMD1 120325Z 14005KT 28/17 A3005 RMK A01 T02840165  RH  049%=      5-min Rain = 0
KMD1 120326Z 14005KT 28/17 A3005 RMK A01 T02840165  RH  049%=      5-min Rain = 0
KMD1 120327Z 15005KT 28/17 A3005 RMK A01 T02830165  RH  049%=      5-min Rain = 0
KMD1 120328Z 14004KT 28/17 A3005 RMK A01 T02830166  RH  049%=      5-min Rain = 0
KMD1 120329Z 14005KT 28/17 A3005 RMK A01 T02830166  RH  049%=      5-min Rain = 0
KMD1 120330Z 14004KT 28/17 A3005 RMK A01 T02830166  RH  049%=      5-min Rain = 0
KMD1 120331Z 14005KT 28/17 A3005 RMK A01 T02830166  RH  049%=      5-min Rain = 0
KMD1 120332Z 14005KT 28/17 A3006 RMK A01 T02820166  RH  049%=      5-min Rain = 0
KMD1 120333Z 14005KT 28/17 A3006 RMK A01 T02820165  RH  049%=      5-min Rain = 0
KMD1 120334Z 14005KT 28/17 A3006 RMK A01 T02820165  RH  049%=      5-min Rain = 0
KMD1 120335Z 14004KT 28/17 A3006 RMK A01 T02820165  RH  049%=      5-min Rain = 0
KMD1 120336Z 14005KT 28/17 A3006 RMK A01 T02820165  RH  049%=      5-min Rain = 0
KMD1 120337Z 14005KT 28/17 A3006 RMK A01 T02820166  RH  049%=      5-min Rain = 0
KMD1 120338Z 14005KT 28/17 A3006 RMK A01 T02820166  RH  049%=      5-min Rain = 0
KMD1 120339Z 14005KT 28/17 A3006 RMK A01 T02810166  RH  050%=      5-min Rain = 0
KMD1 120340Z 14004KT 28/17 A3006 RMK A01 T02800166  RH  050%=      5-min Rain = 0
KMD1 120341Z 14004KT 28/17 A3006 RMK A01 T02790166  RH  050%=      5-min Rain = 0
KMD1 120342Z 14006KT 28/17 A3006 RMK A01 T02780166  RH  050%=      5-min Rain = 0
KMD1 120343Z 14005KT 28/17 A3006 RMK A01 T02780166  RH  050%=      5-min Rain = 0
KMD1 120344Z 14004KT 28/17 A3006 RMK A01 T02780166  RH  050%=      5-min Rain = 0
KMD1 120345Z 15005KT 28/17 A3006 RMK A01 T02790166  RH  050%=      5-min Rain = 0
KMD1 120346Z 15005KT 28/17 A3006 RMK A01 T02790166  RH  050%=      5-min Rain = 0
KMD1 120347Z 15004KT 28/17 A3006 RMK A01 T02790166  RH  050%=      5-min Rain = 0
KMD1 120348Z 14004KT 28/17 A3006 RMK A01 T02790166  RH  050%=      5-min Rain = 0
KMD1 120349Z 15005KT 28/17 A3006 RMK A01 T02790166  RH  050%=      5-min Rain = 0
KMD1 120350Z 15006KT 28/17 A3006 RMK A01 T02790166  RH  050%=      5-min Rain = 0
KMD1 120351Z 15006KT 28/17 A3006 RMK A01 T02790166  RH  050%=      5-min Rain = 0
KMD1 120352Z 14005KT 28/17 A3006 RMK A01 T02790166  RH  050%=      5-min Rain = 0
KMD1 120353Z 14007KT 28/17 A3006 RMK A01 T02800166  RH  050%=      5-min Rain = 0
KMD1 120354Z 14005KT 28/17 A3006 RMK A01 T02810166  RH  050%=      5-min Rain = 0
KMD1 120355Z 14005KT 28/17 A3007 RMK A01 T02810166  RH  050%=      5-min Rain = 0
KMD1 120356Z 14005KT 28/17 A3007 RMK A01 T02810166  RH  050%=      5-min Rain = 0
KMD1 120357Z 13005KT 28/17 A3007 RMK A01 T02810167  RH  050%=      5-min Rain = 0
KMD1 120358Z 13005KT 28/17 A3007 RMK A01 T02800167  RH  050%=      5-min Rain = 0
KMD1 120359Z 12005KT 28/17 A3007 RMK A01 T02790167  RH  051%=      5-min Rain = 0
KMD1 120400Z 12005KT 28/17 A3007 RMK A01 T02770167  RH  051%=      5-min Rain = 0
KMD1 120401Z 12004KT 28/17 A3007 RMK A01 T02760168  RH  052%=      5-min Rain = 0
KMD1 120402Z 12004KT 27/17 A3007 RMK A01 T02740168  RH  052%=      5-min Rain = 0
KMD1 120403Z 12004KT 27/17 A3007 RMK A01 T02730168  RH  053%=      5-min Rain = 0
KMD1 120404Z 12004KT 27/17 A3007 RMK A01 T02720168  RH  053%=      5-min Rain = 0
KMD1 120405Z 12004KT 27/17 A3007 RMK A01 T02720168  RH  053%=      5-min Rain = 0
KMD1 120406Z 12004KT 27/17 A3007 RMK A01 T02720168  RH  053%=      5-min Rain = 0
KMD1 120407Z 12005KT 27/17 A3007 RMK A01 T02720168  RH  053%=      5-min Rain = 0
KMD1 120408Z 12004KT 27/17 A3007 RMK A01 T02730168  RH  053%=      5-min Rain = 0
KMD1 120409Z 13005KT 27/17 A3007 RMK A01 T02720168  RH  053%=      5-min Rain = 0
KMD1 120410Z 12005KT 27/17 A3007 RMK A01 T02720168  RH  053%=      5-min Rain = 0
KMD1 120411Z 13005KT 27/17 A3008 RMK A01 T02720168  RH  053%=      5-min Rain = 0
KMD1 120412Z 13004KT 27/17 A3008 RMK A01 T02720168  RH  053%=      5-min Rain = 0
KMD1 120413Z 13005KT 27/17 A3008 RMK A01 T02710169  RH  053%=      5-min Rain = 0
KMD1 120414Z 13005KT 27/17 A3008 RMK A01 T02710169  RH  054%=      5-min Rain = 0
KMD1 120415Z 13004KT 27/17 A3008 RMK A01 T02700168  RH  054%=      5-min Rain = 0
KMD1 120416Z 13004KT 27/17 A3008 RMK A01 T02700168  RH  054%=      5-min Rain = 0
KMD1 120417Z 13004KT 27/17 A3008 RMK A01 T02690169  RH  054%=      5-min Rain = 0
KMD1 120418Z 13004KT 27/17 A3008 RMK A01 T02690169  RH  054%=      5-min Rain = 0
KMD1 120419Z 13004KT 27/17 A3008 RMK A01 T02690169  RH  054%=      5-min Rain = 0
KMD1 120420Z 13005KT 27/17 A3008 RMK A01 T02680169  RH  055%=      5-min Rain = 0
KMD1 120421Z 13004KT 27/17 A3008 RMK A01 T02680169  RH  055%=      5-min Rain = 0
KMD1 120422Z 13004KT 27/17 A3008 RMK A01 T02680169  RH  055%=      5-min Rain = 0
KMD1 120423Z 14004KT 27/17 A3008 RMK A01 T02670169  RH  055%=      5-min Rain = 0
KMD1 120424Z 14003KT 27/17 A3008 RMK A01 T02670169  RH  055%=      5-min Rain = 0
KMD1 120425Z 14003KT 27/17 A3008 RMK A01 T02670170  RH  055%=      5-min Rain = 0
KMD1 120426Z 14004KT 27/17 A3008 RMK A01 T02660169  RH  055%=      5-min Rain = 0
KMD1 120427Z 14004KT 27/17 A3008 RMK A01 T02660169  RH  055%=      5-min Rain = 0
KMD1 120428Z 15003KT 27/17 A3008 RMK A01 T02660169  RH  055%=      5-min Rain = 0
KMD1 120429Z 14004KT 27/17 A3008 RMK A01 T02660169  RH  055%=      5-min Rain = 0
KMD1 120430Z 14004KT 27/17 A3008 RMK A01 T02660169  RH  055%=      5-min Rain = 0
KMD1 120431Z 14003KT 27/17 A3008 RMK A01 T02650169  RH  055%=      5-min Rain = 0
KMD1 120432Z 14003KT 27/17 A3008 RMK A01 T02650169  RH  056%=      5-min Rain = 0
KMD1 120433Z 15003KT 27/17 A3008 RMK A01 T02650169  RH  056%=      5-min Rain = 0
KMD1 120434Z 15003KT 26/17 A3008 RMK A01 T02640169  RH  056%=      5-min Rain = 0
KMD1 120435Z 14003KT 26/17 A3008 RMK A01 T02640170  RH  056%=      5-min Rain = 0
KMD1 120436Z 15003KT 26/17 A3008 RMK A01 T02640170  RH  056%=      5-min Rain = 0
KMD1 120437Z 15002KT 26/17 A3008 RMK A01 T02640169  RH  056%=      5-min Rain = 0
KMD1 120438Z 14003KT 26/17 A3008 RMK A01 T02640169  RH  056%=      5-min Rain = 0
KMD1 120439Z 14004KT 26/17 A3008 RMK A01 T02640169  RH  056%=      5-min Rain = 0
KMD1 120440Z 14003KT 26/17 A3008 RMK A01 T02640169  RH  056%=      5-min Rain = 0
KMD1 120441Z 15002KT 26/17 A3008 RMK A01 T02640170  RH  056%=      5-min Rain = 0
KMD1 120442Z 15004KT 26/17 A3008 RMK A01 T02630170  RH  056%=      5-min Rain = 0
KMD1 120443Z 15004KT 26/17 A3008 RMK A01 T02630170  RH  056%=      5-min Rain = 0
KMD1 120444Z 15003KT 26/17 A3008 RMK A01 T02630170  RH  057%=      5-min Rain = 0
KMD1 120445Z 15003KT 26/17 A3008 RMK A01 T02630170  RH  057%=      5-min Rain = 0
KMD1 120446Z 16004KT 26/17 A3008 RMK A01 T02630170  RH  056%=      5-min Rain = 0
KMD1 120447Z 16004KT 26/17 A3008 RMK A01 T02630169  RH  056%=      5-min Rain = 0
KMD1 120448Z 16004KT 26/17 A3008 RMK A01 T02640170  RH  056%=      5-min Rain = 0
KMD1 120449Z 16004KT 26/17 A3008 RMK A01 T02640170  RH  056%=      5-min Rain = 0
KMD1 120450Z 16004KT 27/17 A3008 RMK A01 T02650171  RH  056%=      5-min Rain = 0
KMD1 120451Z 16003KT 27/17 A3008 RMK A01 T02650170  RH  056%=      5-min Rain = 0
KMD1 120452Z 15002KT 27/17 A3008 RMK A01 T02650171  RH  056%=      5-min Rain = 0
KMD1 120453Z 14003KT 27/17 A3009 RMK A01 T02650171  RH  056%=      5-min Rain = 0
KMD1 120454Z 15003KT 26/17 A3009 RMK A01 T02640171  RH  056%=      5-min Rain = 0
KMD1 120455Z 13003KT 26/17 A3009 RMK A01 T02640171  RH  057%=      5-min Rain = 0
KMD1 120456Z 14002KT 26/17 A3009 RMK A01 T02640171  RH  057%=      5-min Rain = 0
KMD1 120457Z 14002KT 26/17 A3009 RMK A01 T02640171  RH  057%=      5-min Rain = 0
KMD1 120458Z 14002KT 26/17 A3008 RMK A01 T02630171  RH  057%=      5-min Rain = 0
KMD1 120459Z 15002KT 26/17 A3008 RMK A01 T02630171  RH  057%=      5-min Rain = 0
KMD1 120500Z 15002KT 26/17 A3008 RMK A01 T02620171  RH  057%=      5-min Rain = 0

Page generated in 0.0716 seconds.